<?xml version="1.0" encoding="UTF-8" standalone="no" ?>
<gpx xmlns="http://www.topografix.com/GPX/1/1" xmlns:xsi="http://www.w3.org/2001/XMLSchema-instance" xsi:schemaLocation="http://www.topografix.com/GPX/1/1 http://www.topografix.com/GPX/1/1/gpx.xsd" version="1.1" creator="VisuGPX - https://www.visugpx.com">
  <metadata>
    <name>Balade avec People</name>
    <desc><![CDATA[28 aout 2013
reprise du travail!]]></desc>
  </metadata>
  <trk>
    <name><![CDATA[28 août 2013 19:56:23]]></name>
    <cmt><![CDATA[28 août 2013 19:56:23]]></cmt>
    <trkseg>
      <trkpt lat="44.35163" lon="2.51736">
        <ele>605</ele>
        <time>2013-08-28T17:56:24Z</time>
      </trkpt>
      <trkpt lat="44.35156" lon="2.51741">
        <ele>601</ele>
        <time>2013-08-28T17:56:27Z</time>
      </trkpt>
      <trkpt lat="44.35148" lon="2.51746">
        <ele>596</ele>
        <time>2013-08-28T17:56:34Z</time>
      </trkpt>
      <trkpt lat="44.35143" lon="2.51748">
        <ele>594</ele>
        <time>2013-08-28T17:56:37Z</time>
      </trkpt>
      <trkpt lat="44.35138" lon="2.51751">
        <ele>592</ele>
        <time>2013-08-28T17:56:41Z</time>
      </trkpt>
      <trkpt lat="44.35129" lon="2.51751">
        <ele>589</ele>
        <time>2013-08-28T17:56:48Z</time>
      </trkpt>
      <trkpt lat="44.35124" lon="2.51751">
        <ele>588</ele>
        <time>2013-08-28T17:56:51Z</time>
      </trkpt>
      <trkpt lat="44.35118" lon="2.51752">
        <ele>587</ele>
        <time>2013-08-28T17:56:55Z</time>
      </trkpt>
      <trkpt lat="44.35114" lon="2.51754">
        <ele>585</ele>
        <time>2013-08-28T17:56:58Z</time>
      </trkpt>
      <trkpt lat="44.35109" lon="2.51757">
        <ele>584</ele>
        <time>2013-08-28T17:57:01Z</time>
      </trkpt>
      <trkpt lat="44.35105" lon="2.5176">
        <ele>583</ele>
        <time>2013-08-28T17:57:03Z</time>
      </trkpt>
      <trkpt lat="44.351" lon="2.51763">
        <ele>582</ele>
        <time>2013-08-28T17:57:06Z</time>
      </trkpt>
      <trkpt lat="44.35095" lon="2.51765">
        <ele>581</ele>
        <time>2013-08-28T17:57:09Z</time>
      </trkpt>
      <trkpt lat="44.35091" lon="2.51766">
        <ele>582</ele>
        <time>2013-08-28T17:57:15Z</time>
      </trkpt>
      <trkpt lat="44.35086" lon="2.51771">
        <ele>583</ele>
        <time>2013-08-28T17:57:19Z</time>
      </trkpt>
      <trkpt lat="44.35082" lon="2.51776">
        <ele>584</ele>
        <time>2013-08-28T17:57:22Z</time>
      </trkpt>
      <trkpt lat="44.35078" lon="2.5178">
        <ele>585</ele>
        <time>2013-08-28T17:57:25Z</time>
      </trkpt>
      <trkpt lat="44.35073" lon="2.51784">
        <ele>585</ele>
        <time>2013-08-28T17:57:28Z</time>
      </trkpt>
      <trkpt lat="44.35068" lon="2.51788">
        <ele>585</ele>
        <time>2013-08-28T17:57:31Z</time>
      </trkpt>
      <trkpt lat="44.35063" lon="2.51791">
        <ele>586</ele>
        <time>2013-08-28T17:57:34Z</time>
      </trkpt>
      <trkpt lat="44.35057" lon="2.51795">
        <ele>586</ele>
        <time>2013-08-28T17:57:38Z</time>
      </trkpt>
      <trkpt lat="44.35053" lon="2.51799">
        <ele>586</ele>
        <time>2013-08-28T17:57:41Z</time>
      </trkpt>
      <trkpt lat="44.35049" lon="2.51804">
        <ele>587</ele>
        <time>2013-08-28T17:57:44Z</time>
      </trkpt>
      <trkpt lat="44.35045" lon="2.51807">
        <ele>587</ele>
        <time>2013-08-28T17:57:48Z</time>
      </trkpt>
      <trkpt lat="44.35039" lon="2.51813">
        <ele>587</ele>
        <time>2013-08-28T17:57:54Z</time>
      </trkpt>
      <trkpt lat="44.35035" lon="2.51817">
        <ele>587</ele>
        <time>2013-08-28T17:57:57Z</time>
      </trkpt>
      <trkpt lat="44.35031" lon="2.51821">
        <ele>587</ele>
        <time>2013-08-28T17:58:00Z</time>
      </trkpt>
      <trkpt lat="44.35027" lon="2.51825">
        <ele>586</ele>
        <time>2013-08-28T17:58:04Z</time>
      </trkpt>
      <trkpt lat="44.35022" lon="2.51828">
        <ele>585</ele>
        <time>2013-08-28T17:58:08Z</time>
      </trkpt>
      <trkpt lat="44.35018" lon="2.51832">
        <ele>585</ele>
        <time>2013-08-28T17:58:11Z</time>
      </trkpt>
      <trkpt lat="44.35013" lon="2.51836">
        <ele>585</ele>
        <time>2013-08-28T17:58:14Z</time>
      </trkpt>
      <trkpt lat="44.35006" lon="2.51837">
        <ele>584</ele>
        <time>2013-08-28T17:58:19Z</time>
      </trkpt>
      <trkpt lat="44.35001" lon="2.51835">
        <ele>585</ele>
        <time>2013-08-28T17:58:22Z</time>
      </trkpt>
      <trkpt lat="44.34998" lon="2.5183">
        <ele>586</ele>
        <time>2013-08-28T17:58:25Z</time>
      </trkpt>
      <trkpt lat="44.34995" lon="2.51824">
        <ele>586</ele>
        <time>2013-08-28T17:58:28Z</time>
      </trkpt>
      <trkpt lat="44.34991" lon="2.51818">
        <ele>587</ele>
        <time>2013-08-28T17:58:31Z</time>
      </trkpt>
      <trkpt lat="44.34988" lon="2.51812">
        <ele>587</ele>
        <time>2013-08-28T17:58:34Z</time>
      </trkpt>
      <trkpt lat="44.34984" lon="2.51806">
        <ele>586</ele>
        <time>2013-08-28T17:58:38Z</time>
      </trkpt>
      <trkpt lat="44.34981" lon="2.518">
        <ele>587</ele>
        <time>2013-08-28T17:58:41Z</time>
      </trkpt>
      <trkpt lat="44.34977" lon="2.51794">
        <ele>586</ele>
        <time>2013-08-28T17:58:44Z</time>
      </trkpt>
      <trkpt lat="44.34974" lon="2.51789">
        <ele>585</ele>
        <time>2013-08-28T17:58:47Z</time>
      </trkpt>
      <trkpt lat="44.34969" lon="2.51778">
        <ele>585</ele>
        <time>2013-08-28T17:58:53Z</time>
      </trkpt>
      <trkpt lat="44.34961" lon="2.5177">
        <ele>584</ele>
        <time>2013-08-28T17:59:01Z</time>
      </trkpt>
      <trkpt lat="44.34956" lon="2.51772">
        <ele>583</ele>
        <time>2013-08-28T17:59:05Z</time>
      </trkpt>
      <trkpt lat="44.34951" lon="2.51776">
        <ele>583</ele>
        <time>2013-08-28T17:59:08Z</time>
      </trkpt>
      <trkpt lat="44.34946" lon="2.51779">
        <ele>583</ele>
        <time>2013-08-28T17:59:11Z</time>
      </trkpt>
      <trkpt lat="44.34943" lon="2.51785">
        <ele>584</ele>
        <time>2013-08-28T17:59:14Z</time>
      </trkpt>
      <trkpt lat="44.34938" lon="2.51791">
        <ele>584</ele>
        <time>2013-08-28T17:59:17Z</time>
      </trkpt>
      <trkpt lat="44.34934" lon="2.51795">
        <ele>584</ele>
        <time>2013-08-28T17:59:21Z</time>
      </trkpt>
      <trkpt lat="44.34929" lon="2.51798">
        <ele>584</ele>
        <time>2013-08-28T17:59:24Z</time>
      </trkpt>
      <trkpt lat="44.34925" lon="2.51801">
        <ele>585</ele>
        <time>2013-08-28T17:59:27Z</time>
      </trkpt>
      <trkpt lat="44.34919" lon="2.51804">
        <ele>585</ele>
        <time>2013-08-28T17:59:31Z</time>
      </trkpt>
      <trkpt lat="44.34913" lon="2.51807">
        <ele>586</ele>
        <time>2013-08-28T17:59:35Z</time>
      </trkpt>
      <trkpt lat="44.34908" lon="2.51809">
        <ele>587</ele>
        <time>2013-08-28T17:59:38Z</time>
      </trkpt>
      <trkpt lat="44.34904" lon="2.5181">
        <ele>587</ele>
        <time>2013-08-28T17:59:41Z</time>
      </trkpt>
      <trkpt lat="44.34898" lon="2.5181">
        <ele>587</ele>
        <time>2013-08-28T17:59:45Z</time>
      </trkpt>
      <trkpt lat="44.34893" lon="2.51809">
        <ele>587</ele>
        <time>2013-08-28T17:59:48Z</time>
      </trkpt>
      <trkpt lat="44.34888" lon="2.51809">
        <ele>588</ele>
        <time>2013-08-28T17:59:52Z</time>
      </trkpt>
      <trkpt lat="44.34882" lon="2.51808">
        <ele>588</ele>
        <time>2013-08-28T17:59:56Z</time>
      </trkpt>
      <trkpt lat="44.34877" lon="2.51808">
        <ele>588</ele>
        <time>2013-08-28T17:59:59Z</time>
      </trkpt>
      <trkpt lat="44.34872" lon="2.51807">
        <ele>588</ele>
        <time>2013-08-28T18:00:02Z</time>
      </trkpt>
      <trkpt lat="44.34868" lon="2.51805">
        <ele>589</ele>
        <time>2013-08-28T18:00:05Z</time>
      </trkpt>
      <trkpt lat="44.34862" lon="2.51804">
        <ele>588</ele>
        <time>2013-08-28T18:00:10Z</time>
      </trkpt>
      <trkpt lat="44.34857" lon="2.51803">
        <ele>588</ele>
        <time>2013-08-28T18:00:13Z</time>
      </trkpt>
      <trkpt lat="44.34851" lon="2.51803">
        <ele>589</ele>
        <time>2013-08-28T18:00:17Z</time>
      </trkpt>
      <trkpt lat="44.34846" lon="2.51803">
        <ele>589</ele>
        <time>2013-08-28T18:00:20Z</time>
      </trkpt>
      <trkpt lat="44.34841" lon="2.51802">
        <ele>589</ele>
        <time>2013-08-28T18:00:23Z</time>
      </trkpt>
      <trkpt lat="44.34836" lon="2.51802">
        <ele>588</ele>
        <time>2013-08-28T18:00:26Z</time>
      </trkpt>
      <trkpt lat="44.34832" lon="2.51802">
        <ele>589</ele>
        <time>2013-08-28T18:00:29Z</time>
      </trkpt>
      <trkpt lat="44.34824" lon="2.51802">
        <ele>590</ele>
        <time>2013-08-28T18:00:34Z</time>
      </trkpt>
      <trkpt lat="44.34819" lon="2.51802">
        <ele>591</ele>
        <time>2013-08-28T18:00:38Z</time>
      </trkpt>
      <trkpt lat="44.34814" lon="2.51802">
        <ele>591</ele>
        <time>2013-08-28T18:00:41Z</time>
      </trkpt>
      <trkpt lat="44.34809" lon="2.51801">
        <ele>591</ele>
        <time>2013-08-28T18:00:44Z</time>
      </trkpt>
      <trkpt lat="44.34803" lon="2.518">
        <ele>591</ele>
        <time>2013-08-28T18:00:47Z</time>
      </trkpt>
      <trkpt lat="44.34798" lon="2.51798">
        <ele>591</ele>
        <time>2013-08-28T18:00:51Z</time>
      </trkpt>
      <trkpt lat="44.34793" lon="2.51797">
        <ele>591</ele>
        <time>2013-08-28T18:00:54Z</time>
      </trkpt>
      <trkpt lat="44.34787" lon="2.51796">
        <ele>591</ele>
        <time>2013-08-28T18:00:57Z</time>
      </trkpt>
      <trkpt lat="44.34781" lon="2.51795">
        <ele>592</ele>
        <time>2013-08-28T18:01:01Z</time>
      </trkpt>
      <trkpt lat="44.34776" lon="2.51795">
        <ele>592</ele>
        <time>2013-08-28T18:01:04Z</time>
      </trkpt>
      <trkpt lat="44.34771" lon="2.51795">
        <ele>593</ele>
        <time>2013-08-28T18:01:08Z</time>
      </trkpt>
      <trkpt lat="44.34766" lon="2.51796">
        <ele>592</ele>
        <time>2013-08-28T18:01:12Z</time>
      </trkpt>
      <trkpt lat="44.34761" lon="2.518">
        <ele>592</ele>
        <time>2013-08-28T18:01:15Z</time>
      </trkpt>
      <trkpt lat="44.34757" lon="2.51803">
        <ele>593</ele>
        <time>2013-08-28T18:01:17Z</time>
      </trkpt>
      <trkpt lat="44.34753" lon="2.51808">
        <ele>594</ele>
        <time>2013-08-28T18:01:21Z</time>
      </trkpt>
      <trkpt lat="44.34748" lon="2.51812">
        <ele>595</ele>
        <time>2013-08-28T18:01:24Z</time>
      </trkpt>
      <trkpt lat="44.34744" lon="2.51817">
        <ele>595</ele>
        <time>2013-08-28T18:01:27Z</time>
      </trkpt>
      <trkpt lat="44.3474" lon="2.51822">
        <ele>596</ele>
        <time>2013-08-28T18:01:30Z</time>
      </trkpt>
      <trkpt lat="44.34735" lon="2.51828">
        <ele>596</ele>
        <time>2013-08-28T18:01:33Z</time>
      </trkpt>
      <trkpt lat="44.3473" lon="2.51832">
        <ele>597</ele>
        <time>2013-08-28T18:01:36Z</time>
      </trkpt>
      <trkpt lat="44.34726" lon="2.51838">
        <ele>598</ele>
        <time>2013-08-28T18:01:40Z</time>
      </trkpt>
      <trkpt lat="44.34722" lon="2.51842">
        <ele>598</ele>
        <time>2013-08-28T18:01:44Z</time>
      </trkpt>
      <trkpt lat="44.34717" lon="2.51844">
        <ele>598</ele>
        <time>2013-08-28T18:01:47Z</time>
      </trkpt>
      <trkpt lat="44.34712" lon="2.51846">
        <ele>599</ele>
        <time>2013-08-28T18:01:50Z</time>
      </trkpt>
      <trkpt lat="44.34707" lon="2.51847">
        <ele>599</ele>
        <time>2013-08-28T18:01:53Z</time>
      </trkpt>
      <trkpt lat="44.34702" lon="2.51848">
        <ele>599</ele>
        <time>2013-08-28T18:01:57Z</time>
      </trkpt>
      <trkpt lat="44.34698" lon="2.51846">
        <ele>599</ele>
        <time>2013-08-28T18:02:00Z</time>
      </trkpt>
      <trkpt lat="44.34693" lon="2.51843">
        <ele>599</ele>
        <time>2013-08-28T18:02:03Z</time>
      </trkpt>
      <trkpt lat="44.34688" lon="2.51842">
        <ele>598</ele>
        <time>2013-08-28T18:02:07Z</time>
      </trkpt>
      <trkpt lat="44.34683" lon="2.51842">
        <ele>598</ele>
        <time>2013-08-28T18:02:11Z</time>
      </trkpt>
      <trkpt lat="44.34677" lon="2.51844">
        <ele>597</ele>
        <time>2013-08-28T18:02:15Z</time>
      </trkpt>
      <trkpt lat="44.34672" lon="2.51848">
        <ele>597</ele>
        <time>2013-08-28T18:02:19Z</time>
      </trkpt>
      <trkpt lat="44.34667" lon="2.5185">
        <ele>597</ele>
        <time>2013-08-28T18:02:23Z</time>
      </trkpt>
      <trkpt lat="44.34662" lon="2.51852">
        <ele>597</ele>
        <time>2013-08-28T18:02:27Z</time>
      </trkpt>
      <trkpt lat="44.34652" lon="2.5185">
        <ele>597</ele>
        <time>2013-08-28T18:02:33Z</time>
      </trkpt>
      <trkpt lat="44.34648" lon="2.51845">
        <ele>598</ele>
        <time>2013-08-28T18:02:36Z</time>
      </trkpt>
      <trkpt lat="44.34645" lon="2.5184">
        <ele>599</ele>
        <time>2013-08-28T18:02:39Z</time>
      </trkpt>
      <trkpt lat="44.34642" lon="2.51835">
        <ele>600</ele>
        <time>2013-08-28T18:02:42Z</time>
      </trkpt>
      <trkpt lat="44.34639" lon="2.51828">
        <ele>600</ele>
        <time>2013-08-28T18:02:46Z</time>
      </trkpt>
      <trkpt lat="44.34637" lon="2.51821">
        <ele>600</ele>
        <time>2013-08-28T18:02:49Z</time>
      </trkpt>
      <trkpt lat="44.34633" lon="2.51813">
        <ele>600</ele>
        <time>2013-08-28T18:02:52Z</time>
      </trkpt>
      <trkpt lat="44.3463" lon="2.51806">
        <ele>599</ele>
        <time>2013-08-28T18:02:54Z</time>
      </trkpt>
      <trkpt lat="44.34626" lon="2.51797">
        <ele>599</ele>
        <time>2013-08-28T18:02:56Z</time>
      </trkpt>
      <trkpt lat="44.34625" lon="2.51793">
        <ele>599</ele>
        <time>2013-08-28T18:02:57Z</time>
      </trkpt>
      <trkpt lat="44.34623" lon="2.51789">
        <ele>600</ele>
        <time>2013-08-28T18:02:58Z</time>
      </trkpt>
      <trkpt lat="44.34622" lon="2.51785">
        <ele>601</ele>
        <time>2013-08-28T18:02:59Z</time>
      </trkpt>
      <trkpt lat="44.34619" lon="2.51781">
        <ele>601</ele>
        <time>2013-08-28T18:03:00Z</time>
      </trkpt>
      <trkpt lat="44.34618" lon="2.51777">
        <ele>601</ele>
        <time>2013-08-28T18:03:01Z</time>
      </trkpt>
      <trkpt lat="44.34616" lon="2.51773">
        <ele>602</ele>
        <time>2013-08-28T18:03:02Z</time>
      </trkpt>
      <trkpt lat="44.34614" lon="2.5177">
        <ele>602</ele>
        <time>2013-08-28T18:03:03Z</time>
      </trkpt>
      <trkpt lat="44.34612" lon="2.51766">
        <ele>602</ele>
        <time>2013-08-28T18:03:04Z</time>
      </trkpt>
      <trkpt lat="44.34611" lon="2.51761">
        <ele>602</ele>
        <time>2013-08-28T18:03:05Z</time>
      </trkpt>
      <trkpt lat="44.3461" lon="2.51757">
        <ele>602</ele>
        <time>2013-08-28T18:03:06Z</time>
      </trkpt>
      <trkpt lat="44.34608" lon="2.51752">
        <ele>602</ele>
        <time>2013-08-28T18:03:07Z</time>
      </trkpt>
      <trkpt lat="44.34606" lon="2.51748">
        <ele>602</ele>
        <time>2013-08-28T18:03:08Z</time>
      </trkpt>
      <trkpt lat="44.34604" lon="2.51744">
        <ele>601</ele>
        <time>2013-08-28T18:03:09Z</time>
      </trkpt>
      <trkpt lat="44.34602" lon="2.5174">
        <ele>601</ele>
        <time>2013-08-28T18:03:10Z</time>
      </trkpt>
      <trkpt lat="44.346" lon="2.51736">
        <ele>601</ele>
        <time>2013-08-28T18:03:11Z</time>
      </trkpt>
      <trkpt lat="44.34597" lon="2.51732">
        <ele>601</ele>
        <time>2013-08-28T18:03:12Z</time>
      </trkpt>
      <trkpt lat="44.34596" lon="2.51728">
        <ele>601</ele>
        <time>2013-08-28T18:03:13Z</time>
      </trkpt>
      <trkpt lat="44.34594" lon="2.51724">
        <ele>601</ele>
        <time>2013-08-28T18:03:14Z</time>
      </trkpt>
      <trkpt lat="44.34592" lon="2.5172">
        <ele>602</ele>
        <time>2013-08-28T18:03:15Z</time>
      </trkpt>
      <trkpt lat="44.3459" lon="2.51716">
        <ele>602</ele>
        <time>2013-08-28T18:03:16Z</time>
      </trkpt>
      <trkpt lat="44.34588" lon="2.51713">
        <ele>602</ele>
        <time>2013-08-28T18:03:17Z</time>
      </trkpt>
      <trkpt lat="44.34586" lon="2.5171">
        <ele>602</ele>
        <time>2013-08-28T18:03:18Z</time>
      </trkpt>
      <trkpt lat="44.34582" lon="2.51703">
        <ele>602</ele>
        <time>2013-08-28T18:03:20Z</time>
      </trkpt>
      <trkpt lat="44.3458" lon="2.51699">
        <ele>601</ele>
        <time>2013-08-28T18:03:21Z</time>
      </trkpt>
      <trkpt lat="44.34577" lon="2.51695">
        <ele>601</ele>
        <time>2013-08-28T18:03:22Z</time>
      </trkpt>
      <trkpt lat="44.34575" lon="2.5169">
        <ele>601</ele>
        <time>2013-08-28T18:03:23Z</time>
      </trkpt>
      <trkpt lat="44.34573" lon="2.51686">
        <ele>601</ele>
        <time>2013-08-28T18:03:24Z</time>
      </trkpt>
      <trkpt lat="44.34571" lon="2.51682">
        <ele>601</ele>
        <time>2013-08-28T18:03:25Z</time>
      </trkpt>
      <trkpt lat="44.34569" lon="2.51679">
        <ele>601</ele>
        <time>2013-08-28T18:03:26Z</time>
      </trkpt>
      <trkpt lat="44.34567" lon="2.51676">
        <ele>601</ele>
        <time>2013-08-28T18:03:27Z</time>
      </trkpt>
      <trkpt lat="44.34566" lon="2.51672">
        <ele>601</ele>
        <time>2013-08-28T18:03:28Z</time>
      </trkpt>
      <trkpt lat="44.34564" lon="2.51668">
        <ele>602</ele>
        <time>2013-08-28T18:03:29Z</time>
      </trkpt>
      <trkpt lat="44.34565" lon="2.51665">
        <ele>602</ele>
        <time>2013-08-28T18:03:30Z</time>
      </trkpt>
      <trkpt lat="44.34567" lon="2.51659">
        <ele>603</ele>
        <time>2013-08-28T18:03:32Z</time>
      </trkpt>
      <trkpt lat="44.34571" lon="2.51656">
        <ele>604</ele>
        <time>2013-08-28T18:03:34Z</time>
      </trkpt>
      <trkpt lat="44.34574" lon="2.51655">
        <ele>605</ele>
        <time>2013-08-28T18:03:35Z</time>
      </trkpt>
      <trkpt lat="44.34577" lon="2.51653">
        <ele>606</ele>
        <time>2013-08-28T18:03:36Z</time>
      </trkpt>
      <trkpt lat="44.34584" lon="2.5165">
        <ele>606</ele>
        <time>2013-08-28T18:03:38Z</time>
      </trkpt>
      <trkpt lat="44.34591" lon="2.51647">
        <ele>607</ele>
        <time>2013-08-28T18:03:40Z</time>
      </trkpt>
      <trkpt lat="44.34598" lon="2.51643">
        <ele>608</ele>
        <time>2013-08-28T18:03:42Z</time>
      </trkpt>
      <trkpt lat="44.34605" lon="2.51638">
        <ele>609</ele>
        <time>2013-08-28T18:03:44Z</time>
      </trkpt>
      <trkpt lat="44.34611" lon="2.51635">
        <ele>610</ele>
        <time>2013-08-28T18:03:46Z</time>
      </trkpt>
      <trkpt lat="44.34616" lon="2.51633">
        <ele>611</ele>
        <time>2013-08-28T18:03:48Z</time>
      </trkpt>
      <trkpt lat="44.34621" lon="2.5163">
        <ele>611</ele>
        <time>2013-08-28T18:03:50Z</time>
      </trkpt>
      <trkpt lat="44.34628" lon="2.51627">
        <ele>612</ele>
        <time>2013-08-28T18:03:52Z</time>
      </trkpt>
      <trkpt lat="44.34635" lon="2.51624">
        <ele>612</ele>
        <time>2013-08-28T18:03:54Z</time>
      </trkpt>
      <trkpt lat="44.34643" lon="2.51622">
        <ele>612</ele>
        <time>2013-08-28T18:03:56Z</time>
      </trkpt>
      <trkpt lat="44.3465" lon="2.51621">
        <ele>611</ele>
        <time>2013-08-28T18:03:58Z</time>
      </trkpt>
      <trkpt lat="44.34656" lon="2.51622">
        <ele>611</ele>
        <time>2013-08-28T18:04:00Z</time>
      </trkpt>
      <trkpt lat="44.34663" lon="2.51623">
        <ele>610</ele>
        <time>2013-08-28T18:04:02Z</time>
      </trkpt>
      <trkpt lat="44.34672" lon="2.51624">
        <ele>610</ele>
        <time>2013-08-28T18:04:04Z</time>
      </trkpt>
      <trkpt lat="44.34679" lon="2.51625">
        <ele>609</ele>
        <time>2013-08-28T18:04:06Z</time>
      </trkpt>
      <trkpt lat="44.34687" lon="2.51626">
        <ele>609</ele>
        <time>2013-08-28T18:04:08Z</time>
      </trkpt>
      <trkpt lat="44.34695" lon="2.51627">
        <ele>608</ele>
        <time>2013-08-28T18:04:10Z</time>
      </trkpt>
      <trkpt lat="44.34702" lon="2.51628">
        <ele>607</ele>
        <time>2013-08-28T18:04:12Z</time>
      </trkpt>
      <trkpt lat="44.34709" lon="2.51629">
        <ele>606</ele>
        <time>2013-08-28T18:04:14Z</time>
      </trkpt>
      <trkpt lat="44.34717" lon="2.5163">
        <ele>606</ele>
        <time>2013-08-28T18:04:16Z</time>
      </trkpt>
      <trkpt lat="44.34721" lon="2.5163">
        <ele>606</ele>
        <time>2013-08-28T18:04:17Z</time>
      </trkpt>
      <trkpt lat="44.34724" lon="2.5163">
        <ele>606</ele>
        <time>2013-08-28T18:04:18Z</time>
      </trkpt>
      <trkpt lat="44.34727" lon="2.51631">
        <ele>606</ele>
        <time>2013-08-28T18:04:19Z</time>
      </trkpt>
      <trkpt lat="44.3473" lon="2.51632">
        <ele>606</ele>
        <time>2013-08-28T18:04:20Z</time>
      </trkpt>
      <trkpt lat="44.34736" lon="2.51632">
        <ele>606</ele>
        <time>2013-08-28T18:04:22Z</time>
      </trkpt>
      <trkpt lat="44.34741" lon="2.51632">
        <ele>607</ele>
        <time>2013-08-28T18:04:24Z</time>
      </trkpt>
      <trkpt lat="44.34746" lon="2.51633">
        <ele>606</ele>
        <time>2013-08-28T18:04:27Z</time>
      </trkpt>
      <trkpt lat="44.34754" lon="2.51636">
        <ele>606</ele>
        <time>2013-08-28T18:04:32Z</time>
      </trkpt>
      <trkpt lat="44.34757" lon="2.51636">
        <ele>607</ele>
        <time>2013-08-28T18:04:34Z</time>
      </trkpt>
      <trkpt lat="44.34761" lon="2.51637">
        <ele>608</ele>
        <time>2013-08-28T18:04:36Z</time>
      </trkpt>
      <trkpt lat="44.34764" lon="2.51637">
        <ele>608</ele>
        <time>2013-08-28T18:04:37Z</time>
      </trkpt>
      <trkpt lat="44.34767" lon="2.51638">
        <ele>608</ele>
        <time>2013-08-28T18:04:38Z</time>
      </trkpt>
      <trkpt lat="44.3477" lon="2.51638">
        <ele>609</ele>
        <time>2013-08-28T18:04:39Z</time>
      </trkpt>
      <trkpt lat="44.34778" lon="2.51639">
        <ele>609</ele>
        <time>2013-08-28T18:04:41Z</time>
      </trkpt>
      <trkpt lat="44.34786" lon="2.51641">
        <ele>610</ele>
        <time>2013-08-28T18:04:43Z</time>
      </trkpt>
      <trkpt lat="44.34793" lon="2.51642">
        <ele>610</ele>
        <time>2013-08-28T18:04:45Z</time>
      </trkpt>
      <trkpt lat="44.348" lon="2.51643">
        <ele>610</ele>
        <time>2013-08-28T18:04:47Z</time>
      </trkpt>
      <trkpt lat="44.34806" lon="2.51643">
        <ele>609</ele>
        <time>2013-08-28T18:04:49Z</time>
      </trkpt>
      <trkpt lat="44.34809" lon="2.51643">
        <ele>609</ele>
        <time>2013-08-28T18:04:50Z</time>
      </trkpt>
      <trkpt lat="44.34812" lon="2.51643">
        <ele>609</ele>
        <time>2013-08-28T18:04:51Z</time>
      </trkpt>
      <trkpt lat="44.34817" lon="2.51643">
        <ele>608</ele>
        <time>2013-08-28T18:04:53Z</time>
      </trkpt>
      <trkpt lat="44.34822" lon="2.51643">
        <ele>608</ele>
        <time>2013-08-28T18:04:55Z</time>
      </trkpt>
      <trkpt lat="44.34828" lon="2.51643">
        <ele>608</ele>
        <time>2013-08-28T18:04:57Z</time>
      </trkpt>
      <trkpt lat="44.34834" lon="2.51643">
        <ele>608</ele>
        <time>2013-08-28T18:04:59Z</time>
      </trkpt>
      <trkpt lat="44.34841" lon="2.51643">
        <ele>608</ele>
        <time>2013-08-28T18:05:01Z</time>
      </trkpt>
      <trkpt lat="44.34848" lon="2.51644">
        <ele>607</ele>
        <time>2013-08-28T18:05:03Z</time>
      </trkpt>
      <trkpt lat="44.34856" lon="2.51644">
        <ele>607</ele>
        <time>2013-08-28T18:05:05Z</time>
      </trkpt>
      <trkpt lat="44.34864" lon="2.51644">
        <ele>606</ele>
        <time>2013-08-28T18:05:07Z</time>
      </trkpt>
      <trkpt lat="44.34871" lon="2.51644">
        <ele>605</ele>
        <time>2013-08-28T18:05:09Z</time>
      </trkpt>
      <trkpt lat="44.34879" lon="2.51644">
        <ele>605</ele>
        <time>2013-08-28T18:05:11Z</time>
      </trkpt>
      <trkpt lat="44.34885" lon="2.51644">
        <ele>604</ele>
        <time>2013-08-28T18:05:13Z</time>
      </trkpt>
      <trkpt lat="44.34891" lon="2.51644">
        <ele>603</ele>
        <time>2013-08-28T18:05:15Z</time>
      </trkpt>
      <trkpt lat="44.34898" lon="2.51645">
        <ele>603</ele>
        <time>2013-08-28T18:05:17Z</time>
      </trkpt>
      <trkpt lat="44.34905" lon="2.51646">
        <ele>602</ele>
        <time>2013-08-28T18:05:19Z</time>
      </trkpt>
      <trkpt lat="44.34914" lon="2.51646">
        <ele>602</ele>
        <time>2013-08-28T18:05:21Z</time>
      </trkpt>
      <trkpt lat="44.34919" lon="2.51647">
        <ele>601</ele>
        <time>2013-08-28T18:05:22Z</time>
      </trkpt>
      <trkpt lat="44.34927" lon="2.51648">
        <ele>601</ele>
        <time>2013-08-28T18:05:24Z</time>
      </trkpt>
      <trkpt lat="44.34933" lon="2.51648">
        <ele>600</ele>
        <time>2013-08-28T18:05:26Z</time>
      </trkpt>
      <trkpt lat="44.34938" lon="2.51649">
        <ele>600</ele>
        <time>2013-08-28T18:05:29Z</time>
      </trkpt>
      <trkpt lat="44.34944" lon="2.51647">
        <ele>599</ele>
        <time>2013-08-28T18:05:32Z</time>
      </trkpt>
      <trkpt lat="44.34947" lon="2.51644">
        <ele>599</ele>
        <time>2013-08-28T18:05:34Z</time>
      </trkpt>
      <trkpt lat="44.3495" lon="2.51642">
        <ele>598</ele>
        <time>2013-08-28T18:05:36Z</time>
      </trkpt>
      <trkpt lat="44.34954" lon="2.51641">
        <ele>598</ele>
        <time>2013-08-28T18:05:38Z</time>
      </trkpt>
      <trkpt lat="44.34957" lon="2.5164">
        <ele>598</ele>
        <time>2013-08-28T18:05:40Z</time>
      </trkpt>
      <trkpt lat="44.34961" lon="2.51638">
        <ele>598</ele>
        <time>2013-08-28T18:05:43Z</time>
      </trkpt>
      <trkpt lat="44.34967" lon="2.51636">
        <ele>597</ele>
        <time>2013-08-28T18:05:46Z</time>
      </trkpt>
      <trkpt lat="44.34972" lon="2.51632">
        <ele>595</ele>
        <time>2013-08-28T18:05:50Z</time>
      </trkpt>
      <trkpt lat="44.34977" lon="2.5163">
        <ele>594</ele>
        <time>2013-08-28T18:05:53Z</time>
      </trkpt>
      <trkpt lat="44.34982" lon="2.51628">
        <ele>594</ele>
        <time>2013-08-28T18:05:56Z</time>
      </trkpt>
      <trkpt lat="44.34987" lon="2.51626">
        <ele>593</ele>
        <time>2013-08-28T18:06:00Z</time>
      </trkpt>
      <trkpt lat="44.34993" lon="2.51622">
        <ele>592</ele>
        <time>2013-08-28T18:06:04Z</time>
      </trkpt>
      <trkpt lat="44.34997" lon="2.51619">
        <ele>591</ele>
        <time>2013-08-28T18:06:09Z</time>
      </trkpt>
      <trkpt lat="44.35002" lon="2.51616">
        <ele>590</ele>
        <time>2013-08-28T18:06:12Z</time>
      </trkpt>
      <trkpt lat="44.35006" lon="2.51615">
        <ele>589</ele>
        <time>2013-08-28T18:06:15Z</time>
      </trkpt>
      <trkpt lat="44.35011" lon="2.51612">
        <ele>588</ele>
        <time>2013-08-28T18:06:18Z</time>
      </trkpt>
      <trkpt lat="44.35014" lon="2.51607">
        <ele>587</ele>
        <time>2013-08-28T18:06:21Z</time>
      </trkpt>
      <trkpt lat="44.35018" lon="2.51602">
        <ele>586</ele>
        <time>2013-08-28T18:06:24Z</time>
      </trkpt>
      <trkpt lat="44.35021" lon="2.51596">
        <ele>586</ele>
        <time>2013-08-28T18:06:27Z</time>
      </trkpt>
      <trkpt lat="44.35024" lon="2.51591">
        <ele>586</ele>
        <time>2013-08-28T18:06:30Z</time>
      </trkpt>
      <trkpt lat="44.35027" lon="2.51586">
        <ele>586</ele>
        <time>2013-08-28T18:06:33Z</time>
      </trkpt>
      <trkpt lat="44.3503" lon="2.5158">
        <ele>585</ele>
        <time>2013-08-28T18:06:37Z</time>
      </trkpt>
      <trkpt lat="44.35035" lon="2.51573">
        <ele>586</ele>
        <time>2013-08-28T18:06:41Z</time>
      </trkpt>
      <trkpt lat="44.35038" lon="2.51567">
        <ele>586</ele>
        <time>2013-08-28T18:06:45Z</time>
      </trkpt>
      <trkpt lat="44.35043" lon="2.51563">
        <ele>587</ele>
        <time>2013-08-28T18:06:49Z</time>
      </trkpt>
      <trkpt lat="44.35049" lon="2.5156">
        <ele>586</ele>
        <time>2013-08-28T18:06:53Z</time>
      </trkpt>
      <trkpt lat="44.35053" lon="2.51559">
        <ele>585</ele>
        <time>2013-08-28T18:06:56Z</time>
      </trkpt>
      <trkpt lat="44.35058" lon="2.5156">
        <ele>584</ele>
        <time>2013-08-28T18:07:00Z</time>
      </trkpt>
      <trkpt lat="44.35064" lon="2.51561">
        <ele>584</ele>
        <time>2013-08-28T18:07:03Z</time>
      </trkpt>
      <trkpt lat="44.35071" lon="2.51564">
        <ele>585</ele>
        <time>2013-08-28T18:07:08Z</time>
      </trkpt>
      <trkpt lat="44.35077" lon="2.51565">
        <ele>585</ele>
        <time>2013-08-28T18:07:11Z</time>
      </trkpt>
      <trkpt lat="44.35082" lon="2.51566">
        <ele>585</ele>
        <time>2013-08-28T18:07:14Z</time>
      </trkpt>
      <trkpt lat="44.35087" lon="2.51567">
        <ele>584</ele>
        <time>2013-08-28T18:07:17Z</time>
      </trkpt>
      <trkpt lat="44.35092" lon="2.51569">
        <ele>584</ele>
        <time>2013-08-28T18:07:21Z</time>
      </trkpt>
      <trkpt lat="44.35098" lon="2.51569">
        <ele>583</ele>
        <time>2013-08-28T18:07:25Z</time>
      </trkpt>
      <trkpt lat="44.35103" lon="2.51566">
        <ele>582</ele>
        <time>2013-08-28T18:07:29Z</time>
      </trkpt>
      <trkpt lat="44.35106" lon="2.51563">
        <ele>581</ele>
        <time>2013-08-28T18:07:32Z</time>
      </trkpt>
      <trkpt lat="44.3511" lon="2.51559">
        <ele>580</ele>
        <time>2013-08-28T18:07:35Z</time>
      </trkpt>
      <trkpt lat="44.35115" lon="2.51555">
        <ele>579</ele>
        <time>2013-08-28T18:07:38Z</time>
      </trkpt>
      <trkpt lat="44.35119" lon="2.51552">
        <ele>579</ele>
        <time>2013-08-28T18:07:41Z</time>
      </trkpt>
      <trkpt lat="44.35123" lon="2.51548">
        <ele>579</ele>
        <time>2013-08-28T18:07:44Z</time>
      </trkpt>
      <trkpt lat="44.35127" lon="2.51543">
        <ele>579</ele>
        <time>2013-08-28T18:07:48Z</time>
      </trkpt>
      <trkpt lat="44.35131" lon="2.51539">
        <ele>578</ele>
        <time>2013-08-28T18:07:52Z</time>
      </trkpt>
      <trkpt lat="44.35135" lon="2.51535">
        <ele>578</ele>
        <time>2013-08-28T18:07:55Z</time>
      </trkpt>
      <trkpt lat="44.35139" lon="2.51531">
        <ele>578</ele>
        <time>2013-08-28T18:07:59Z</time>
      </trkpt>
      <trkpt lat="44.35143" lon="2.51528">
        <ele>576</ele>
        <time>2013-08-28T18:08:03Z</time>
      </trkpt>
      <trkpt lat="44.35147" lon="2.51524">
        <ele>575</ele>
        <time>2013-08-28T18:08:07Z</time>
      </trkpt>
      <trkpt lat="44.35152" lon="2.5152">
        <ele>574</ele>
        <time>2013-08-28T18:08:11Z</time>
      </trkpt>
      <trkpt lat="44.3516" lon="2.51513">
        <ele>570</ele>
        <time>2013-08-28T18:08:19Z</time>
      </trkpt>
      <trkpt lat="44.35166" lon="2.51511">
        <ele>567</ele>
        <time>2013-08-28T18:08:25Z</time>
      </trkpt>
      <trkpt lat="44.35175" lon="2.51507">
        <ele>565</ele>
        <time>2013-08-28T18:08:31Z</time>
      </trkpt>
      <trkpt lat="44.35182" lon="2.51503">
        <ele>565</ele>
        <time>2013-08-28T18:08:36Z</time>
      </trkpt>
      <trkpt lat="44.35187" lon="2.515">
        <ele>565</ele>
        <time>2013-08-28T18:08:39Z</time>
      </trkpt>
      <trkpt lat="44.35192" lon="2.51494">
        <ele>566</ele>
        <time>2013-08-28T18:08:42Z</time>
      </trkpt>
      <trkpt lat="44.35196" lon="2.51489">
        <ele>567</ele>
        <time>2013-08-28T18:08:45Z</time>
      </trkpt>
      <trkpt lat="44.35203" lon="2.51481">
        <ele>568</ele>
        <time>2013-08-28T18:08:51Z</time>
      </trkpt>
      <trkpt lat="44.35206" lon="2.51475">
        <ele>568</ele>
        <time>2013-08-28T18:08:54Z</time>
      </trkpt>
      <trkpt lat="44.35208" lon="2.51469">
        <ele>568</ele>
        <time>2013-08-28T18:08:57Z</time>
      </trkpt>
      <trkpt lat="44.35208" lon="2.51462">
        <ele>568</ele>
        <time>2013-08-28T18:09:00Z</time>
      </trkpt>
      <trkpt lat="44.35209" lon="2.51455">
        <ele>568</ele>
        <time>2013-08-28T18:09:04Z</time>
      </trkpt>
      <trkpt lat="44.35207" lon="2.51442">
        <ele>568</ele>
        <time>2013-08-28T18:09:11Z</time>
      </trkpt>
      <trkpt lat="44.35202" lon="2.51431">
        <ele>567</ele>
        <time>2013-08-28T18:09:18Z</time>
      </trkpt>
      <trkpt lat="44.35195" lon="2.5142">
        <ele>567</ele>
        <time>2013-08-28T18:09:25Z</time>
      </trkpt>
      <trkpt lat="44.35188" lon="2.51409">
        <ele>566</ele>
        <time>2013-08-28T18:09:32Z</time>
      </trkpt>
      <trkpt lat="44.3518" lon="2.51402">
        <ele>566</ele>
        <time>2013-08-28T18:09:37Z</time>
      </trkpt>
      <trkpt lat="44.35174" lon="2.51394">
        <ele>566</ele>
        <time>2013-08-28T18:09:42Z</time>
      </trkpt>
      <trkpt lat="44.35167" lon="2.51385">
        <ele>565</ele>
        <time>2013-08-28T18:09:48Z</time>
      </trkpt>
      <trkpt lat="44.35163" lon="2.5138">
        <ele>563</ele>
        <time>2013-08-28T18:09:51Z</time>
      </trkpt>
      <trkpt lat="44.35159" lon="2.51375">
        <ele>562</ele>
        <time>2013-08-28T18:09:54Z</time>
      </trkpt>
      <trkpt lat="44.35153" lon="2.51364">
        <ele>559</ele>
        <time>2013-08-28T18:10:01Z</time>
      </trkpt>
      <trkpt lat="44.35146" lon="2.51351">
        <ele>559</ele>
        <time>2013-08-28T18:10:09Z</time>
      </trkpt>
      <trkpt lat="44.35138" lon="2.51341">
        <ele>561</ele>
        <time>2013-08-28T18:10:15Z</time>
      </trkpt>
      <trkpt lat="44.35134" lon="2.5133">
        <ele>561</ele>
        <time>2013-08-28T18:10:22Z</time>
      </trkpt>
      <trkpt lat="44.3513" lon="2.51321">
        <ele>560</ele>
        <time>2013-08-28T18:10:26Z</time>
      </trkpt>
      <trkpt lat="44.35127" lon="2.51316">
        <ele>559</ele>
        <time>2013-08-28T18:10:29Z</time>
      </trkpt>
      <trkpt lat="44.35125" lon="2.5131">
        <ele>559</ele>
        <time>2013-08-28T18:10:33Z</time>
      </trkpt>
      <trkpt lat="44.3512" lon="2.51299">
        <ele>559</ele>
        <time>2013-08-28T18:10:39Z</time>
      </trkpt>
      <trkpt lat="44.35113" lon="2.51287">
        <ele>558</ele>
        <time>2013-08-28T18:10:43Z</time>
      </trkpt>
      <trkpt lat="44.35109" lon="2.51279">
        <ele>557</ele>
        <time>2013-08-28T18:10:45Z</time>
      </trkpt>
      <trkpt lat="44.35106" lon="2.51272">
        <ele>556</ele>
        <time>2013-08-28T18:10:47Z</time>
      </trkpt>
      <trkpt lat="44.35102" lon="2.51263">
        <ele>555</ele>
        <time>2013-08-28T18:10:49Z</time>
      </trkpt>
      <trkpt lat="44.35098" lon="2.51255">
        <ele>554</ele>
        <time>2013-08-28T18:10:51Z</time>
      </trkpt>
      <trkpt lat="44.35095" lon="2.51248">
        <ele>552</ele>
        <time>2013-08-28T18:10:53Z</time>
      </trkpt>
      <trkpt lat="44.35092" lon="2.51241">
        <ele>551</ele>
        <time>2013-08-28T18:10:55Z</time>
      </trkpt>
      <trkpt lat="44.35088" lon="2.51234">
        <ele>550</ele>
        <time>2013-08-28T18:10:57Z</time>
      </trkpt>
      <trkpt lat="44.35083" lon="2.51227">
        <ele>549</ele>
        <time>2013-08-28T18:10:59Z</time>
      </trkpt>
      <trkpt lat="44.35079" lon="2.5122">
        <ele>549</ele>
        <time>2013-08-28T18:11:01Z</time>
      </trkpt>
      <trkpt lat="44.35074" lon="2.51214">
        <ele>549</ele>
        <time>2013-08-28T18:11:03Z</time>
      </trkpt>
      <trkpt lat="44.3507" lon="2.51208">
        <ele>548</ele>
        <time>2013-08-28T18:11:05Z</time>
      </trkpt>
      <trkpt lat="44.35064" lon="2.51202">
        <ele>548</ele>
        <time>2013-08-28T18:11:08Z</time>
      </trkpt>
      <trkpt lat="44.35057" lon="2.512">
        <ele>548</ele>
        <time>2013-08-28T18:11:10Z</time>
      </trkpt>
      <trkpt lat="44.3505" lon="2.51202">
        <ele>549</ele>
        <time>2013-08-28T18:11:12Z</time>
      </trkpt>
      <trkpt lat="44.35044" lon="2.51205">
        <ele>550</ele>
        <time>2013-08-28T18:11:14Z</time>
      </trkpt>
      <trkpt lat="44.35038" lon="2.51208">
        <ele>552</ele>
        <time>2013-08-28T18:11:16Z</time>
      </trkpt>
      <trkpt lat="44.35034" lon="2.51211">
        <ele>553</ele>
        <time>2013-08-28T18:11:18Z</time>
      </trkpt>
      <trkpt lat="44.35028" lon="2.51214">
        <ele>555</ele>
        <time>2013-08-28T18:11:20Z</time>
      </trkpt>
      <trkpt lat="44.3502" lon="2.51215">
        <ele>556</ele>
        <time>2013-08-28T18:11:22Z</time>
      </trkpt>
      <trkpt lat="44.35012" lon="2.51214">
        <ele>559</ele>
        <time>2013-08-28T18:11:24Z</time>
      </trkpt>
      <trkpt lat="44.35008" lon="2.51212">
        <ele>560</ele>
        <time>2013-08-28T18:11:25Z</time>
      </trkpt>
      <trkpt lat="44.35002" lon="2.51207">
        <ele>562</ele>
        <time>2013-08-28T18:11:27Z</time>
      </trkpt>
      <trkpt lat="44.34997" lon="2.512">
        <ele>564</ele>
        <time>2013-08-28T18:11:29Z</time>
      </trkpt>
      <trkpt lat="44.34993" lon="2.51193">
        <ele>567</ele>
        <time>2013-08-28T18:11:31Z</time>
      </trkpt>
      <trkpt lat="44.3499" lon="2.51186">
        <ele>569</ele>
        <time>2013-08-28T18:11:33Z</time>
      </trkpt>
      <trkpt lat="44.34986" lon="2.51179">
        <ele>571</ele>
        <time>2013-08-28T18:11:35Z</time>
      </trkpt>
      <trkpt lat="44.34982" lon="2.51172">
        <ele>571</ele>
        <time>2013-08-28T18:11:37Z</time>
      </trkpt>
      <trkpt lat="44.34978" lon="2.51166">
        <ele>571</ele>
        <time>2013-08-28T18:11:39Z</time>
      </trkpt>
      <trkpt lat="44.34973" lon="2.51159">
        <ele>571</ele>
        <time>2013-08-28T18:11:41Z</time>
      </trkpt>
      <trkpt lat="44.34966" lon="2.51154">
        <ele>571</ele>
        <time>2013-08-28T18:11:43Z</time>
      </trkpt>
      <trkpt lat="44.34961" lon="2.51148">
        <ele>571</ele>
        <time>2013-08-28T18:11:45Z</time>
      </trkpt>
      <trkpt lat="44.34956" lon="2.51143">
        <ele>571</ele>
        <time>2013-08-28T18:11:47Z</time>
      </trkpt>
      <trkpt lat="44.3495" lon="2.51138">
        <ele>572</ele>
        <time>2013-08-28T18:11:49Z</time>
      </trkpt>
      <trkpt lat="44.34945" lon="2.51133">
        <ele>573</ele>
        <time>2013-08-28T18:11:51Z</time>
      </trkpt>
      <trkpt lat="44.34941" lon="2.51128">
        <ele>573</ele>
        <time>2013-08-28T18:11:53Z</time>
      </trkpt>
      <trkpt lat="44.34937" lon="2.51123">
        <ele>573</ele>
        <time>2013-08-28T18:11:55Z</time>
      </trkpt>
      <trkpt lat="44.34932" lon="2.51119">
        <ele>573</ele>
        <time>2013-08-28T18:11:57Z</time>
      </trkpt>
      <trkpt lat="44.34928" lon="2.51115">
        <ele>573</ele>
        <time>2013-08-28T18:11:59Z</time>
      </trkpt>
      <trkpt lat="44.3492" lon="2.51105">
        <ele>573</ele>
        <time>2013-08-28T18:12:06Z</time>
      </trkpt>
      <trkpt lat="44.34906" lon="2.51102">
        <ele>573</ele>
        <time>2013-08-28T18:12:09Z</time>
      </trkpt>
      <trkpt lat="44.34893" lon="2.51097">
        <ele>572</ele>
        <time>2013-08-28T18:12:12Z</time>
      </trkpt>
      <trkpt lat="44.34882" lon="2.5109">
        <ele>572</ele>
        <time>2013-08-28T18:12:14Z</time>
      </trkpt>
      <trkpt lat="44.34873" lon="2.51082">
        <ele>572</ele>
        <time>2013-08-28T18:12:16Z</time>
      </trkpt>
      <trkpt lat="44.34862" lon="2.51069">
        <ele>572</ele>
        <time>2013-08-28T18:12:21Z</time>
      </trkpt>
      <trkpt lat="44.34855" lon="2.51062">
        <ele>574</ele>
        <time>2013-08-28T18:12:23Z</time>
      </trkpt>
      <trkpt lat="44.34848" lon="2.51055">
        <ele>575</ele>
        <time>2013-08-28T18:12:25Z</time>
      </trkpt>
      <trkpt lat="44.34844" lon="2.51047">
        <ele>577</ele>
        <time>2013-08-28T18:12:27Z</time>
      </trkpt>
      <trkpt lat="44.34838" lon="2.51041">
        <ele>578</ele>
        <time>2013-08-28T18:12:29Z</time>
      </trkpt>
      <trkpt lat="44.34834" lon="2.51033">
        <ele>579</ele>
        <time>2013-08-28T18:12:31Z</time>
      </trkpt>
      <trkpt lat="44.3483" lon="2.51024">
        <ele>580</ele>
        <time>2013-08-28T18:12:33Z</time>
      </trkpt>
      <trkpt lat="44.34828" lon="2.51016">
        <ele>581</ele>
        <time>2013-08-28T18:12:35Z</time>
      </trkpt>
      <trkpt lat="44.34824" lon="2.51007">
        <ele>581</ele>
        <time>2013-08-28T18:12:37Z</time>
      </trkpt>
      <trkpt lat="44.34822" lon="2.50997">
        <ele>583</ele>
        <time>2013-08-28T18:12:39Z</time>
      </trkpt>
      <trkpt lat="44.3482" lon="2.50989">
        <ele>583</ele>
        <time>2013-08-28T18:12:41Z</time>
      </trkpt>
      <trkpt lat="44.3482" lon="2.50979">
        <ele>584</ele>
        <time>2013-08-28T18:12:43Z</time>
      </trkpt>
      <trkpt lat="44.34821" lon="2.50968">
        <ele>584</ele>
        <time>2013-08-28T18:12:45Z</time>
      </trkpt>
      <trkpt lat="44.34821" lon="2.50957">
        <ele>585</ele>
        <time>2013-08-28T18:12:47Z</time>
      </trkpt>
      <trkpt lat="44.34821" lon="2.50948">
        <ele>585</ele>
        <time>2013-08-28T18:12:49Z</time>
      </trkpt>
      <trkpt lat="44.3482" lon="2.50938">
        <ele>586</ele>
        <time>2013-08-28T18:12:51Z</time>
      </trkpt>
      <trkpt lat="44.34817" lon="2.5093">
        <ele>585</ele>
        <time>2013-08-28T18:12:53Z</time>
      </trkpt>
      <trkpt lat="44.34815" lon="2.5092">
        <ele>585</ele>
        <time>2013-08-28T18:12:55Z</time>
      </trkpt>
      <trkpt lat="44.34813" lon="2.50914">
        <ele>585</ele>
        <time>2013-08-28T18:12:56Z</time>
      </trkpt>
      <trkpt lat="44.34812" lon="2.50904">
        <ele>584</ele>
        <time>2013-08-28T18:12:58Z</time>
      </trkpt>
      <trkpt lat="44.34808" lon="2.50897">
        <ele>583</ele>
        <time>2013-08-28T18:13:00Z</time>
      </trkpt>
      <trkpt lat="44.34805" lon="2.50892">
        <ele>582</ele>
        <time>2013-08-28T18:13:02Z</time>
      </trkpt>
      <trkpt lat="44.34802" lon="2.50887">
        <ele>581</ele>
        <time>2013-08-28T18:13:04Z</time>
      </trkpt>
      <trkpt lat="44.34798" lon="2.50881">
        <ele>580</ele>
        <time>2013-08-28T18:13:06Z</time>
      </trkpt>
      <trkpt lat="44.34795" lon="2.50875">
        <ele>579</ele>
        <time>2013-08-28T18:13:08Z</time>
      </trkpt>
      <trkpt lat="44.34792" lon="2.50869">
        <ele>577</ele>
        <time>2013-08-28T18:13:10Z</time>
      </trkpt>
      <trkpt lat="44.34787" lon="2.50862">
        <ele>575</ele>
        <time>2013-08-28T18:13:13Z</time>
      </trkpt>
      <trkpt lat="44.34784" lon="2.50857">
        <ele>574</ele>
        <time>2013-08-28T18:13:15Z</time>
      </trkpt>
      <trkpt lat="44.34779" lon="2.50852">
        <ele>573</ele>
        <time>2013-08-28T18:13:17Z</time>
      </trkpt>
      <trkpt lat="44.34769" lon="2.50843">
        <ele>570</ele>
        <time>2013-08-28T18:13:21Z</time>
      </trkpt>
      <trkpt lat="44.34759" lon="2.50832">
        <ele>570</ele>
        <time>2013-08-28T18:13:24Z</time>
      </trkpt>
      <trkpt lat="44.34751" lon="2.50821">
        <ele>570</ele>
        <time>2013-08-28T18:13:27Z</time>
      </trkpt>
      <trkpt lat="44.34741" lon="2.50811">
        <ele>572</ele>
        <time>2013-08-28T18:13:31Z</time>
      </trkpt>
      <trkpt lat="44.34735" lon="2.508">
        <ele>574</ele>
        <time>2013-08-28T18:13:34Z</time>
      </trkpt>
      <trkpt lat="44.34729" lon="2.50789">
        <ele>576</ele>
        <time>2013-08-28T18:13:37Z</time>
      </trkpt>
      <trkpt lat="44.34723" lon="2.50777">
        <ele>578</ele>
        <time>2013-08-28T18:13:40Z</time>
      </trkpt>
      <trkpt lat="44.34717" lon="2.50762">
        <ele>580</ele>
        <time>2013-08-28T18:13:43Z</time>
      </trkpt>
      <trkpt lat="44.34716" lon="2.50752">
        <ele>581</ele>
        <time>2013-08-28T18:13:45Z</time>
      </trkpt>
      <trkpt lat="44.34714" lon="2.50743">
        <ele>581</ele>
        <time>2013-08-28T18:13:47Z</time>
      </trkpt>
      <trkpt lat="44.34711" lon="2.50736">
        <ele>581</ele>
        <time>2013-08-28T18:13:49Z</time>
      </trkpt>
      <trkpt lat="44.34708" lon="2.50724">
        <ele>580</ele>
        <time>2013-08-28T18:13:52Z</time>
      </trkpt>
      <trkpt lat="44.34706" lon="2.50709">
        <ele>578</ele>
        <time>2013-08-28T18:13:56Z</time>
      </trkpt>
      <trkpt lat="44.34704" lon="2.50696">
        <ele>578</ele>
        <time>2013-08-28T18:14:01Z</time>
      </trkpt>
      <trkpt lat="44.347" lon="2.50683">
        <ele>576</ele>
        <time>2013-08-28T18:14:07Z</time>
      </trkpt>
      <trkpt lat="44.34693" lon="2.50672">
        <ele>574</ele>
        <time>2013-08-28T18:14:16Z</time>
      </trkpt>
      <trkpt lat="44.34687" lon="2.50662">
        <ele>572</ele>
        <time>2013-08-28T18:14:21Z</time>
      </trkpt>
      <trkpt lat="44.34678" lon="2.50655">
        <ele>571</ele>
        <time>2013-08-28T18:14:27Z</time>
      </trkpt>
      <trkpt lat="44.34669" lon="2.50648">
        <ele>568</ele>
        <time>2013-08-28T18:14:36Z</time>
      </trkpt>
      <trkpt lat="44.34666" lon="2.50661">
        <ele>563</ele>
        <time>2013-08-28T18:14:51Z</time>
      </trkpt>
      <trkpt lat="44.34666" lon="2.50674">
        <ele>564</ele>
        <time>2013-08-28T18:14:58Z</time>
      </trkpt>
      <trkpt lat="44.34666" lon="2.50681">
        <ele>567</ele>
        <time>2013-08-28T18:15:02Z</time>
      </trkpt>
      <trkpt lat="44.34667" lon="2.50691">
        <ele>568</ele>
        <time>2013-08-28T18:15:08Z</time>
      </trkpt>
      <trkpt lat="44.34669" lon="2.50699">
        <ele>569</ele>
        <time>2013-08-28T18:15:11Z</time>
      </trkpt>
      <trkpt lat="44.34669" lon="2.50709">
        <ele>571</ele>
        <time>2013-08-28T18:15:16Z</time>
      </trkpt>
      <trkpt lat="44.3467" lon="2.50716">
        <ele>573</ele>
        <time>2013-08-28T18:15:21Z</time>
      </trkpt>
      <trkpt lat="44.3467" lon="2.50723">
        <ele>574</ele>
        <time>2013-08-28T18:15:25Z</time>
      </trkpt>
      <trkpt lat="44.34671" lon="2.5073">
        <ele>576</ele>
        <time>2013-08-28T18:15:31Z</time>
      </trkpt>
      <trkpt lat="44.34671" lon="2.50737">
        <ele>577</ele>
        <time>2013-08-28T18:15:34Z</time>
      </trkpt>
      <trkpt lat="44.34672" lon="2.50749">
        <ele>579</ele>
        <time>2013-08-28T18:15:39Z</time>
      </trkpt>
      <trkpt lat="44.34672" lon="2.50756">
        <ele>581</ele>
        <time>2013-08-28T18:15:43Z</time>
      </trkpt>
      <trkpt lat="44.34674" lon="2.50765">
        <ele>581</ele>
        <time>2013-08-28T18:15:48Z</time>
      </trkpt>
      <trkpt lat="44.34673" lon="2.50771">
        <ele>582</ele>
        <time>2013-08-28T18:15:52Z</time>
      </trkpt>
      <trkpt lat="44.34671" lon="2.50777">
        <ele>582</ele>
        <time>2013-08-28T18:15:55Z</time>
      </trkpt>
      <trkpt lat="44.3467" lon="2.50792">
        <ele>580</ele>
        <time>2013-08-28T18:16:01Z</time>
      </trkpt>
      <trkpt lat="44.34666" lon="2.50806">
        <ele>580</ele>
        <time>2013-08-28T18:16:09Z</time>
      </trkpt>
      <trkpt lat="44.34662" lon="2.50818">
        <ele>579</ele>
        <time>2013-08-28T18:16:15Z</time>
      </trkpt>
      <trkpt lat="44.34657" lon="2.5083">
        <ele>582</ele>
        <time>2013-08-28T18:16:25Z</time>
      </trkpt>
      <trkpt lat="44.34652" lon="2.50836">
        <ele>585</ele>
        <time>2013-08-28T18:16:31Z</time>
      </trkpt>
      <trkpt lat="44.34644" lon="2.50831">
        <ele>584</ele>
        <time>2013-08-28T18:17:25Z</time>
      </trkpt>
      <trkpt lat="44.3465" lon="2.50817">
        <ele>583</ele>
        <time>2013-08-28T18:17:53Z</time>
      </trkpt>
      <trkpt lat="44.34653" lon="2.50806">
        <ele>584</ele>
        <time>2013-08-28T18:18:01Z</time>
      </trkpt>
      <trkpt lat="44.34655" lon="2.50799">
        <ele>585</ele>
        <time>2013-08-28T18:18:04Z</time>
      </trkpt>
      <trkpt lat="44.34654" lon="2.50785">
        <ele>586</ele>
        <time>2013-08-28T18:18:10Z</time>
      </trkpt>
      <trkpt lat="44.34649" lon="2.50773">
        <ele>584</ele>
        <time>2013-08-28T18:18:15Z</time>
      </trkpt>
      <trkpt lat="44.34644" lon="2.50757">
        <ele>584</ele>
        <time>2013-08-28T18:18:19Z</time>
      </trkpt>
      <trkpt lat="44.34641" lon="2.50748">
        <ele>583</ele>
        <time>2013-08-28T18:18:21Z</time>
      </trkpt>
      <trkpt lat="44.34638" lon="2.5074">
        <ele>583</ele>
        <time>2013-08-28T18:18:23Z</time>
      </trkpt>
      <trkpt lat="44.34635" lon="2.50733">
        <ele>582</ele>
        <time>2013-08-28T18:18:25Z</time>
      </trkpt>
      <trkpt lat="44.34632" lon="2.50726">
        <ele>582</ele>
        <time>2013-08-28T18:18:27Z</time>
      </trkpt>
      <trkpt lat="44.34629" lon="2.5072">
        <ele>581</ele>
        <time>2013-08-28T18:18:29Z</time>
      </trkpt>
      <trkpt lat="44.34626" lon="2.50713">
        <ele>582</ele>
        <time>2013-08-28T18:18:32Z</time>
      </trkpt>
      <trkpt lat="44.34624" lon="2.50707">
        <ele>583</ele>
        <time>2013-08-28T18:18:36Z</time>
      </trkpt>
      <trkpt lat="44.34625" lon="2.50693">
        <ele>584</ele>
        <time>2013-08-28T18:18:42Z</time>
      </trkpt>
      <trkpt lat="44.34618" lon="2.50682">
        <ele>587</ele>
        <time>2013-08-28T18:18:50Z</time>
      </trkpt>
      <trkpt lat="44.34611" lon="2.50671">
        <ele>590</ele>
        <time>2013-08-28T18:18:57Z</time>
      </trkpt>
      <trkpt lat="44.34608" lon="2.50659">
        <ele>591</ele>
        <time>2013-08-28T18:19:02Z</time>
      </trkpt>
      <trkpt lat="44.34603" lon="2.50647">
        <ele>596</ele>
        <time>2013-08-28T18:19:08Z</time>
      </trkpt>
      <trkpt lat="44.34597" lon="2.50633">
        <ele>597</ele>
        <time>2013-08-28T18:19:16Z</time>
      </trkpt>
      <trkpt lat="44.34593" lon="2.5062">
        <ele>597</ele>
        <time>2013-08-28T18:19:22Z</time>
      </trkpt>
      <trkpt lat="44.34593" lon="2.50605">
        <ele>596</ele>
        <time>2013-08-28T18:19:27Z</time>
      </trkpt>
      <trkpt lat="44.34589" lon="2.50594">
        <ele>595</ele>
        <time>2013-08-28T18:19:33Z</time>
      </trkpt>
      <trkpt lat="44.34586" lon="2.50581">
        <ele>596</ele>
        <time>2013-08-28T18:19:37Z</time>
      </trkpt>
      <trkpt lat="44.34582" lon="2.5057">
        <ele>596</ele>
        <time>2013-08-28T18:19:42Z</time>
      </trkpt>
      <trkpt lat="44.34578" lon="2.50558">
        <ele>594</ele>
        <time>2013-08-28T18:19:48Z</time>
      </trkpt>
      <trkpt lat="44.34578" lon="2.50544">
        <ele>591</ele>
        <time>2013-08-28T18:19:53Z</time>
      </trkpt>
      <trkpt lat="44.34577" lon="2.50531">
        <ele>589</ele>
        <time>2013-08-28T18:19:56Z</time>
      </trkpt>
      <trkpt lat="44.34575" lon="2.50519">
        <ele>588</ele>
        <time>2013-08-28T18:19:58Z</time>
      </trkpt>
      <trkpt lat="44.34571" lon="2.50505">
        <ele>586</ele>
        <time>2013-08-28T18:20:02Z</time>
      </trkpt>
      <trkpt lat="44.34567" lon="2.505">
        <ele>585</ele>
        <time>2013-08-28T18:20:04Z</time>
      </trkpt>
      <trkpt lat="44.34562" lon="2.50495">
        <ele>586</ele>
        <time>2013-08-28T18:20:07Z</time>
      </trkpt>
      <trkpt lat="44.34558" lon="2.50487">
        <ele>586</ele>
        <time>2013-08-28T18:20:09Z</time>
      </trkpt>
      <trkpt lat="44.34556" lon="2.50484">
        <ele>587</ele>
        <time>2013-08-28T18:20:10Z</time>
      </trkpt>
      <trkpt lat="44.34552" lon="2.50477">
        <ele>587</ele>
        <time>2013-08-28T18:20:12Z</time>
      </trkpt>
      <trkpt lat="44.34547" lon="2.50472">
        <ele>586</ele>
        <time>2013-08-28T18:20:14Z</time>
      </trkpt>
      <trkpt lat="44.34544" lon="2.50467">
        <ele>585</ele>
        <time>2013-08-28T18:20:16Z</time>
      </trkpt>
      <trkpt lat="44.34538" lon="2.5046">
        <ele>583</ele>
        <time>2013-08-28T18:20:18Z</time>
      </trkpt>
      <trkpt lat="44.34534" lon="2.50451">
        <ele>583</ele>
        <time>2013-08-28T18:20:20Z</time>
      </trkpt>
      <trkpt lat="44.3453" lon="2.50444">
        <ele>583</ele>
        <time>2013-08-28T18:20:22Z</time>
      </trkpt>
      <trkpt lat="44.34528" lon="2.5044">
        <ele>582</ele>
        <time>2013-08-28T18:20:23Z</time>
      </trkpt>
      <trkpt lat="44.34526" lon="2.50436">
        <ele>582</ele>
        <time>2013-08-28T18:20:24Z</time>
      </trkpt>
      <trkpt lat="44.34525" lon="2.50433">
        <ele>582</ele>
        <time>2013-08-28T18:20:25Z</time>
      </trkpt>
      <trkpt lat="44.34524" lon="2.50429">
        <ele>582</ele>
        <time>2013-08-28T18:20:26Z</time>
      </trkpt>
      <trkpt lat="44.34521" lon="2.50419">
        <ele>582</ele>
        <time>2013-08-28T18:20:28Z</time>
      </trkpt>
      <trkpt lat="44.3452" lon="2.50414">
        <ele>581</ele>
        <time>2013-08-28T18:20:29Z</time>
      </trkpt>
      <trkpt lat="44.34517" lon="2.5041">
        <ele>581</ele>
        <time>2013-08-28T18:20:30Z</time>
      </trkpt>
      <trkpt lat="44.34515" lon="2.50405">
        <ele>580</ele>
        <time>2013-08-28T18:20:31Z</time>
      </trkpt>
      <trkpt lat="44.34511" lon="2.50396">
        <ele>580</ele>
        <time>2013-08-28T18:20:33Z</time>
      </trkpt>
      <trkpt lat="44.34508" lon="2.50387">
        <ele>579</ele>
        <time>2013-08-28T18:20:36Z</time>
      </trkpt>
      <trkpt lat="44.34507" lon="2.50383">
        <ele>579</ele>
        <time>2013-08-28T18:20:37Z</time>
      </trkpt>
      <trkpt lat="44.34506" lon="2.50379">
        <ele>579</ele>
        <time>2013-08-28T18:20:38Z</time>
      </trkpt>
      <trkpt lat="44.34503" lon="2.50374">
        <ele>579</ele>
        <time>2013-08-28T18:20:39Z</time>
      </trkpt>
      <trkpt lat="44.34499" lon="2.50368">
        <ele>578</ele>
        <time>2013-08-28T18:20:40Z</time>
      </trkpt>
      <trkpt lat="44.34495" lon="2.50362">
        <ele>578</ele>
        <time>2013-08-28T18:20:41Z</time>
      </trkpt>
      <trkpt lat="44.34491" lon="2.50358">
        <ele>578</ele>
        <time>2013-08-28T18:20:42Z</time>
      </trkpt>
      <trkpt lat="44.34487" lon="2.50354">
        <ele>577</ele>
        <time>2013-08-28T18:20:43Z</time>
      </trkpt>
      <trkpt lat="44.34483" lon="2.50351">
        <ele>576</ele>
        <time>2013-08-28T18:20:44Z</time>
      </trkpt>
      <trkpt lat="44.34476" lon="2.50347">
        <ele>575</ele>
        <time>2013-08-28T18:20:46Z</time>
      </trkpt>
      <trkpt lat="44.34469" lon="2.50345">
        <ele>574</ele>
        <time>2013-08-28T18:20:48Z</time>
      </trkpt>
      <trkpt lat="44.34462" lon="2.50343">
        <ele>574</ele>
        <time>2013-08-28T18:20:50Z</time>
      </trkpt>
      <trkpt lat="44.34455" lon="2.50339">
        <ele>574</ele>
        <time>2013-08-28T18:20:52Z</time>
      </trkpt>
      <trkpt lat="44.34448" lon="2.50335">
        <ele>574</ele>
        <time>2013-08-28T18:20:54Z</time>
      </trkpt>
      <trkpt lat="44.34443" lon="2.5033">
        <ele>574</ele>
        <time>2013-08-28T18:20:56Z</time>
      </trkpt>
      <trkpt lat="44.34437" lon="2.50322">
        <ele>574</ele>
        <time>2013-08-28T18:20:58Z</time>
      </trkpt>
      <trkpt lat="44.34431" lon="2.50315">
        <ele>574</ele>
        <time>2013-08-28T18:21:00Z</time>
      </trkpt>
      <trkpt lat="44.34428" lon="2.50311">
        <ele>574</ele>
        <time>2013-08-28T18:21:01Z</time>
      </trkpt>
      <trkpt lat="44.34423" lon="2.50303">
        <ele>573</ele>
        <time>2013-08-28T18:21:03Z</time>
      </trkpt>
      <trkpt lat="44.34418" lon="2.50294">
        <ele>573</ele>
        <time>2013-08-28T18:21:05Z</time>
      </trkpt>
      <trkpt lat="44.34414" lon="2.50289">
        <ele>573</ele>
        <time>2013-08-28T18:21:07Z</time>
      </trkpt>
      <trkpt lat="44.34408" lon="2.50283">
        <ele>573</ele>
        <time>2013-08-28T18:21:09Z</time>
      </trkpt>
      <trkpt lat="44.34403" lon="2.50276">
        <ele>573</ele>
        <time>2013-08-28T18:21:11Z</time>
      </trkpt>
      <trkpt lat="44.344" lon="2.50268">
        <ele>575</ele>
        <time>2013-08-28T18:21:13Z</time>
      </trkpt>
      <trkpt lat="44.34395" lon="2.5026">
        <ele>575</ele>
        <time>2013-08-28T18:21:15Z</time>
      </trkpt>
      <trkpt lat="44.34391" lon="2.50252">
        <ele>576</ele>
        <time>2013-08-28T18:21:17Z</time>
      </trkpt>
      <trkpt lat="44.34387" lon="2.50245">
        <ele>576</ele>
        <time>2013-08-28T18:21:19Z</time>
      </trkpt>
      <trkpt lat="44.34382" lon="2.50237">
        <ele>577</ele>
        <time>2013-08-28T18:21:21Z</time>
      </trkpt>
      <trkpt lat="44.34379" lon="2.5023">
        <ele>578</ele>
        <time>2013-08-28T18:21:23Z</time>
      </trkpt>
      <trkpt lat="44.34374" lon="2.50224">
        <ele>579</ele>
        <time>2013-08-28T18:21:26Z</time>
      </trkpt>
      <trkpt lat="44.34369" lon="2.50219">
        <ele>580</ele>
        <time>2013-08-28T18:21:29Z</time>
      </trkpt>
      <trkpt lat="44.34365" lon="2.50216">
        <ele>580</ele>
        <time>2013-08-28T18:21:31Z</time>
      </trkpt>
      <trkpt lat="44.34363" lon="2.50214">
        <ele>580</ele>
        <time>2013-08-28T18:21:32Z</time>
      </trkpt>
      <trkpt lat="44.34358" lon="2.50209">
        <ele>581</ele>
        <time>2013-08-28T18:21:35Z</time>
      </trkpt>
      <trkpt lat="44.34353" lon="2.50206">
        <ele>581</ele>
        <time>2013-08-28T18:21:37Z</time>
      </trkpt>
      <trkpt lat="44.34344" lon="2.50201">
        <ele>580</ele>
        <time>2013-08-28T18:21:40Z</time>
      </trkpt>
      <trkpt lat="44.34331" lon="2.50191">
        <ele>581</ele>
        <time>2013-08-28T18:21:46Z</time>
      </trkpt>
      <trkpt lat="44.34323" lon="2.50186">
        <ele>582</ele>
        <time>2013-08-28T18:21:49Z</time>
      </trkpt>
      <trkpt lat="44.34311" lon="2.50177">
        <ele>582</ele>
        <time>2013-08-28T18:21:52Z</time>
      </trkpt>
      <trkpt lat="44.34295" lon="2.50169">
        <ele>581</ele>
        <time>2013-08-28T18:21:54Z</time>
      </trkpt>
      <trkpt lat="44.34281" lon="2.50163">
        <ele>579</ele>
        <time>2013-08-28T18:21:56Z</time>
      </trkpt>
      <trkpt lat="44.34275" lon="2.5016">
        <ele>578</ele>
        <time>2013-08-28T18:21:57Z</time>
      </trkpt>
      <trkpt lat="44.34265" lon="2.50152">
        <ele>577</ele>
        <time>2013-08-28T18:21:59Z</time>
      </trkpt>
      <trkpt lat="44.34262" lon="2.5015">
        <ele>577</ele>
        <time>2013-08-28T18:22:00Z</time>
      </trkpt>
      <trkpt lat="44.3426" lon="2.50148">
        <ele>576</ele>
        <time>2013-08-28T18:22:01Z</time>
      </trkpt>
      <trkpt lat="44.34257" lon="2.50146">
        <ele>576</ele>
        <time>2013-08-28T18:22:02Z</time>
      </trkpt>
      <trkpt lat="44.34255" lon="2.50142">
        <ele>575</ele>
        <time>2013-08-28T18:22:03Z</time>
      </trkpt>
      <trkpt lat="44.34252" lon="2.5014">
        <ele>575</ele>
        <time>2013-08-28T18:22:04Z</time>
      </trkpt>
      <trkpt lat="44.3425" lon="2.50137">
        <ele>574</ele>
        <time>2013-08-28T18:22:05Z</time>
      </trkpt>
      <trkpt lat="44.34247" lon="2.50135">
        <ele>573</ele>
        <time>2013-08-28T18:22:06Z</time>
      </trkpt>
      <trkpt lat="44.34244" lon="2.50137">
        <ele>572</ele>
        <time>2013-08-28T18:22:08Z</time>
      </trkpt>
      <trkpt lat="44.34242" lon="2.50141">
        <ele>571</ele>
        <time>2013-08-28T18:22:10Z</time>
      </trkpt>
      <trkpt lat="44.34242" lon="2.50145">
        <ele>571</ele>
        <time>2013-08-28T18:22:11Z</time>
      </trkpt>
      <trkpt lat="44.34241" lon="2.50151">
        <ele>571</ele>
        <time>2013-08-28T18:22:13Z</time>
      </trkpt>
      <trkpt lat="44.34241" lon="2.50155">
        <ele>571</ele>
        <time>2013-08-28T18:22:14Z</time>
      </trkpt>
      <trkpt lat="44.34241" lon="2.5016">
        <ele>571</ele>
        <time>2013-08-28T18:22:15Z</time>
      </trkpt>
      <trkpt lat="44.34242" lon="2.50165">
        <ele>571</ele>
        <time>2013-08-28T18:22:16Z</time>
      </trkpt>
      <trkpt lat="44.34243" lon="2.50169">
        <ele>571</ele>
        <time>2013-08-28T18:22:17Z</time>
      </trkpt>
      <trkpt lat="44.34244" lon="2.50174">
        <ele>571</ele>
        <time>2013-08-28T18:22:18Z</time>
      </trkpt>
      <trkpt lat="44.34247" lon="2.50183">
        <ele>570</ele>
        <time>2013-08-28T18:22:20Z</time>
      </trkpt>
      <trkpt lat="44.34251" lon="2.50192">
        <ele>570</ele>
        <time>2013-08-28T18:22:22Z</time>
      </trkpt>
      <trkpt lat="44.34253" lon="2.50197">
        <ele>570</ele>
        <time>2013-08-28T18:22:23Z</time>
      </trkpt>
      <trkpt lat="44.34255" lon="2.50201">
        <ele>570</ele>
        <time>2013-08-28T18:22:24Z</time>
      </trkpt>
      <trkpt lat="44.34257" lon="2.50205">
        <ele>570</ele>
        <time>2013-08-28T18:22:25Z</time>
      </trkpt>
      <trkpt lat="44.34262" lon="2.50213">
        <ele>570</ele>
        <time>2013-08-28T18:22:27Z</time>
      </trkpt>
      <trkpt lat="44.34264" lon="2.50217">
        <ele>570</ele>
        <time>2013-08-28T18:22:28Z</time>
      </trkpt>
      <trkpt lat="44.34269" lon="2.50223">
        <ele>570</ele>
        <time>2013-08-28T18:22:30Z</time>
      </trkpt>
      <trkpt lat="44.34272" lon="2.50227">
        <ele>570</ele>
        <time>2013-08-28T18:22:31Z</time>
      </trkpt>
      <trkpt lat="44.34274" lon="2.50231">
        <ele>570</ele>
        <time>2013-08-28T18:22:32Z</time>
      </trkpt>
      <trkpt lat="44.34276" lon="2.50235">
        <ele>570</ele>
        <time>2013-08-28T18:22:33Z</time>
      </trkpt>
      <trkpt lat="44.34278" lon="2.50238">
        <ele>570</ele>
        <time>2013-08-28T18:22:34Z</time>
      </trkpt>
      <trkpt lat="44.34283" lon="2.50246">
        <ele>571</ele>
        <time>2013-08-28T18:22:36Z</time>
      </trkpt>
      <trkpt lat="44.34285" lon="2.5025">
        <ele>571</ele>
        <time>2013-08-28T18:22:37Z</time>
      </trkpt>
      <trkpt lat="44.34287" lon="2.50254">
        <ele>571</ele>
        <time>2013-08-28T18:22:38Z</time>
      </trkpt>
      <trkpt lat="44.34289" lon="2.50258">
        <ele>571</ele>
        <time>2013-08-28T18:22:39Z</time>
      </trkpt>
      <trkpt lat="44.34291" lon="2.50262">
        <ele>571</ele>
        <time>2013-08-28T18:22:40Z</time>
      </trkpt>
      <trkpt lat="44.34294" lon="2.50268">
        <ele>571</ele>
        <time>2013-08-28T18:22:41Z</time>
      </trkpt>
      <trkpt lat="44.34296" lon="2.50272">
        <ele>571</ele>
        <time>2013-08-28T18:22:42Z</time>
      </trkpt>
      <trkpt lat="44.34297" lon="2.50275">
        <ele>571</ele>
        <time>2013-08-28T18:22:43Z</time>
      </trkpt>
      <trkpt lat="44.34299" lon="2.50279">
        <ele>571</ele>
        <time>2013-08-28T18:22:44Z</time>
      </trkpt>
      <trkpt lat="44.343" lon="2.50284">
        <ele>571</ele>
        <time>2013-08-28T18:22:45Z</time>
      </trkpt>
      <trkpt lat="44.34301" lon="2.50288">
        <ele>571</ele>
        <time>2013-08-28T18:22:46Z</time>
      </trkpt>
      <trkpt lat="44.34303" lon="2.50292">
        <ele>571</ele>
        <time>2013-08-28T18:22:47Z</time>
      </trkpt>
      <trkpt lat="44.34304" lon="2.50298">
        <ele>570</ele>
        <time>2013-08-28T18:22:48Z</time>
      </trkpt>
      <trkpt lat="44.34307" lon="2.50308">
        <ele>571</ele>
        <time>2013-08-28T18:22:50Z</time>
      </trkpt>
      <trkpt lat="44.34311" lon="2.50316">
        <ele>571</ele>
        <time>2013-08-28T18:22:52Z</time>
      </trkpt>
      <trkpt lat="44.34314" lon="2.50323">
        <ele>571</ele>
        <time>2013-08-28T18:22:54Z</time>
      </trkpt>
      <trkpt lat="44.34318" lon="2.5033">
        <ele>571</ele>
        <time>2013-08-28T18:22:56Z</time>
      </trkpt>
      <trkpt lat="44.3432" lon="2.50334">
        <ele>572</ele>
        <time>2013-08-28T18:22:57Z</time>
      </trkpt>
      <trkpt lat="44.34322" lon="2.50338">
        <ele>572</ele>
        <time>2013-08-28T18:22:58Z</time>
      </trkpt>
      <trkpt lat="44.34324" lon="2.50341">
        <ele>572</ele>
        <time>2013-08-28T18:22:59Z</time>
      </trkpt>
      <trkpt lat="44.3433" lon="2.5035">
        <ele>572</ele>
        <time>2013-08-28T18:23:02Z</time>
      </trkpt>
      <trkpt lat="44.34335" lon="2.50356">
        <ele>572</ele>
        <time>2013-08-28T18:23:04Z</time>
      </trkpt>
      <trkpt lat="44.34338" lon="2.50359">
        <ele>572</ele>
        <time>2013-08-28T18:23:05Z</time>
      </trkpt>
      <trkpt lat="44.3434" lon="2.50362">
        <ele>572</ele>
        <time>2013-08-28T18:23:06Z</time>
      </trkpt>
      <trkpt lat="44.34343" lon="2.50364">
        <ele>572</ele>
        <time>2013-08-28T18:23:07Z</time>
      </trkpt>
      <trkpt lat="44.34345" lon="2.50367">
        <ele>572</ele>
        <time>2013-08-28T18:23:08Z</time>
      </trkpt>
      <trkpt lat="44.34348" lon="2.50371">
        <ele>572</ele>
        <time>2013-08-28T18:23:09Z</time>
      </trkpt>
      <trkpt lat="44.34351" lon="2.50379">
        <ele>573</ele>
        <time>2013-08-28T18:23:11Z</time>
      </trkpt>
      <trkpt lat="44.34353" lon="2.50384">
        <ele>574</ele>
        <time>2013-08-28T18:23:12Z</time>
      </trkpt>
      <trkpt lat="44.34354" lon="2.50388">
        <ele>575</ele>
        <time>2013-08-28T18:23:13Z</time>
      </trkpt>
      <trkpt lat="44.34356" lon="2.50392">
        <ele>575</ele>
        <time>2013-08-28T18:23:14Z</time>
      </trkpt>
      <trkpt lat="44.34357" lon="2.50396">
        <ele>575</ele>
        <time>2013-08-28T18:23:15Z</time>
      </trkpt>
      <trkpt lat="44.34358" lon="2.504">
        <ele>576</ele>
        <time>2013-08-28T18:23:16Z</time>
      </trkpt>
      <trkpt lat="44.34359" lon="2.50405">
        <ele>575</ele>
        <time>2013-08-28T18:23:17Z</time>
      </trkpt>
      <trkpt lat="44.3436" lon="2.5041">
        <ele>575</ele>
        <time>2013-08-28T18:23:18Z</time>
      </trkpt>
      <trkpt lat="44.3436" lon="2.50414">
        <ele>575</ele>
        <time>2013-08-28T18:23:19Z</time>
      </trkpt>
      <trkpt lat="44.3436" lon="2.50423">
        <ele>575</ele>
        <time>2013-08-28T18:23:21Z</time>
      </trkpt>
      <trkpt lat="44.34361" lon="2.50428">
        <ele>575</ele>
        <time>2013-08-28T18:23:22Z</time>
      </trkpt>
      <trkpt lat="44.34362" lon="2.50432">
        <ele>575</ele>
        <time>2013-08-28T18:23:23Z</time>
      </trkpt>
      <trkpt lat="44.34362" lon="2.50436">
        <ele>575</ele>
        <time>2013-08-28T18:23:24Z</time>
      </trkpt>
      <trkpt lat="44.34363" lon="2.50441">
        <ele>575</ele>
        <time>2013-08-28T18:23:25Z</time>
      </trkpt>
      <trkpt lat="44.34362" lon="2.50446">
        <ele>576</ele>
        <time>2013-08-28T18:23:26Z</time>
      </trkpt>
      <trkpt lat="44.34362" lon="2.50452">
        <ele>576</ele>
        <time>2013-08-28T18:23:27Z</time>
      </trkpt>
      <trkpt lat="44.34363" lon="2.50459">
        <ele>576</ele>
        <time>2013-08-28T18:23:28Z</time>
      </trkpt>
      <trkpt lat="44.34363" lon="2.50469">
        <ele>576</ele>
        <time>2013-08-28T18:23:30Z</time>
      </trkpt>
      <trkpt lat="44.34362" lon="2.50476">
        <ele>576</ele>
        <time>2013-08-28T18:23:31Z</time>
      </trkpt>
      <trkpt lat="44.34362" lon="2.50482">
        <ele>576</ele>
        <time>2013-08-28T18:23:32Z</time>
      </trkpt>
      <trkpt lat="44.34361" lon="2.50489">
        <ele>576</ele>
        <time>2013-08-28T18:23:33Z</time>
      </trkpt>
      <trkpt lat="44.34361" lon="2.50496">
        <ele>577</ele>
        <time>2013-08-28T18:23:34Z</time>
      </trkpt>
      <trkpt lat="44.34361" lon="2.50502">
        <ele>577</ele>
        <time>2013-08-28T18:23:35Z</time>
      </trkpt>
      <trkpt lat="44.34361" lon="2.50509">
        <ele>577</ele>
        <time>2013-08-28T18:23:36Z</time>
      </trkpt>
      <trkpt lat="44.3436" lon="2.5052">
        <ele>578</ele>
        <time>2013-08-28T18:23:38Z</time>
      </trkpt>
      <trkpt lat="44.34359" lon="2.50531">
        <ele>578</ele>
        <time>2013-08-28T18:23:40Z</time>
      </trkpt>
      <trkpt lat="44.34359" lon="2.50538">
        <ele>579</ele>
        <time>2013-08-28T18:23:41Z</time>
      </trkpt>
      <trkpt lat="44.34358" lon="2.50546">
        <ele>579</ele>
        <time>2013-08-28T18:23:42Z</time>
      </trkpt>
      <trkpt lat="44.34357" lon="2.50555">
        <ele>580</ele>
        <time>2013-08-28T18:23:43Z</time>
      </trkpt>
      <trkpt lat="44.34356" lon="2.50561">
        <ele>579</ele>
        <time>2013-08-28T18:23:44Z</time>
      </trkpt>
      <trkpt lat="44.34356" lon="2.50567">
        <ele>580</ele>
        <time>2013-08-28T18:23:45Z</time>
      </trkpt>
      <trkpt lat="44.34355" lon="2.50573">
        <ele>580</ele>
        <time>2013-08-28T18:23:46Z</time>
      </trkpt>
      <trkpt lat="44.34355" lon="2.5058">
        <ele>580</ele>
        <time>2013-08-28T18:23:47Z</time>
      </trkpt>
      <trkpt lat="44.34354" lon="2.50588">
        <ele>580</ele>
        <time>2013-08-28T18:23:48Z</time>
      </trkpt>
      <trkpt lat="44.34354" lon="2.50596">
        <ele>581</ele>
        <time>2013-08-28T18:23:49Z</time>
      </trkpt>
      <trkpt lat="44.34354" lon="2.50604">
        <ele>581</ele>
        <time>2013-08-28T18:23:50Z</time>
      </trkpt>
      <trkpt lat="44.34354" lon="2.50611">
        <ele>582</ele>
        <time>2013-08-28T18:23:51Z</time>
      </trkpt>
      <trkpt lat="44.34354" lon="2.50618">
        <ele>582</ele>
        <time>2013-08-28T18:23:52Z</time>
      </trkpt>
      <trkpt lat="44.34355" lon="2.50625">
        <ele>582</ele>
        <time>2013-08-28T18:23:53Z</time>
      </trkpt>
      <trkpt lat="44.34355" lon="2.50633">
        <ele>583</ele>
        <time>2013-08-28T18:23:54Z</time>
      </trkpt>
      <trkpt lat="44.34354" lon="2.50641">
        <ele>583</ele>
        <time>2013-08-28T18:23:55Z</time>
      </trkpt>
      <trkpt lat="44.34354" lon="2.5065">
        <ele>584</ele>
        <time>2013-08-28T18:23:56Z</time>
      </trkpt>
      <trkpt lat="44.34355" lon="2.50658">
        <ele>584</ele>
        <time>2013-08-28T18:23:57Z</time>
      </trkpt>
      <trkpt lat="44.34355" lon="2.50664">
        <ele>585</ele>
        <time>2013-08-28T18:23:58Z</time>
      </trkpt>
      <trkpt lat="44.34355" lon="2.50671">
        <ele>585</ele>
        <time>2013-08-28T18:23:59Z</time>
      </trkpt>
      <trkpt lat="44.34355" lon="2.50679">
        <ele>586</ele>
        <time>2013-08-28T18:24:00Z</time>
      </trkpt>
      <trkpt lat="44.34356" lon="2.50688">
        <ele>586</ele>
        <time>2013-08-28T18:24:01Z</time>
      </trkpt>
      <trkpt lat="44.34356" lon="2.50697">
        <ele>586</ele>
        <time>2013-08-28T18:24:02Z</time>
      </trkpt>
      <trkpt lat="44.34355" lon="2.50706">
        <ele>587</ele>
        <time>2013-08-28T18:24:03Z</time>
      </trkpt>
      <trkpt lat="44.34355" lon="2.50714">
        <ele>587</ele>
        <time>2013-08-28T18:24:04Z</time>
      </trkpt>
      <trkpt lat="44.34354" lon="2.50723">
        <ele>588</ele>
        <time>2013-08-28T18:24:05Z</time>
      </trkpt>
      <trkpt lat="44.34353" lon="2.50731">
        <ele>588</ele>
        <time>2013-08-28T18:24:06Z</time>
      </trkpt>
      <trkpt lat="44.34353" lon="2.5074">
        <ele>589</ele>
        <time>2013-08-28T18:24:07Z</time>
      </trkpt>
      <trkpt lat="44.34352" lon="2.50748">
        <ele>590</ele>
        <time>2013-08-28T18:24:08Z</time>
      </trkpt>
      <trkpt lat="44.34352" lon="2.50755">
        <ele>590</ele>
        <time>2013-08-28T18:24:09Z</time>
      </trkpt>
      <trkpt lat="44.34351" lon="2.50763">
        <ele>590</ele>
        <time>2013-08-28T18:24:10Z</time>
      </trkpt>
      <trkpt lat="44.34351" lon="2.50772">
        <ele>591</ele>
        <time>2013-08-28T18:24:11Z</time>
      </trkpt>
      <trkpt lat="44.34351" lon="2.5078">
        <ele>592</ele>
        <time>2013-08-28T18:24:12Z</time>
      </trkpt>
      <trkpt lat="44.34351" lon="2.50789">
        <ele>593</ele>
        <time>2013-08-28T18:24:13Z</time>
      </trkpt>
      <trkpt lat="44.34351" lon="2.50795">
        <ele>593</ele>
        <time>2013-08-28T18:24:14Z</time>
      </trkpt>
      <trkpt lat="44.34352" lon="2.50802">
        <ele>594</ele>
        <time>2013-08-28T18:24:15Z</time>
      </trkpt>
      <trkpt lat="44.34353" lon="2.50809">
        <ele>595</ele>
        <time>2013-08-28T18:24:16Z</time>
      </trkpt>
      <trkpt lat="44.34353" lon="2.50817">
        <ele>595</ele>
        <time>2013-08-28T18:24:17Z</time>
      </trkpt>
      <trkpt lat="44.34354" lon="2.50824">
        <ele>596</ele>
        <time>2013-08-28T18:24:18Z</time>
      </trkpt>
      <trkpt lat="44.34355" lon="2.50831">
        <ele>597</ele>
        <time>2013-08-28T18:24:19Z</time>
      </trkpt>
      <trkpt lat="44.34357" lon="2.50838">
        <ele>597</ele>
        <time>2013-08-28T18:24:20Z</time>
      </trkpt>
      <trkpt lat="44.34358" lon="2.50845">
        <ele>598</ele>
        <time>2013-08-28T18:24:21Z</time>
      </trkpt>
      <trkpt lat="44.34361" lon="2.50853">
        <ele>598</ele>
        <time>2013-08-28T18:24:22Z</time>
      </trkpt>
      <trkpt lat="44.34363" lon="2.50859">
        <ele>598</ele>
        <time>2013-08-28T18:24:23Z</time>
      </trkpt>
      <trkpt lat="44.34365" lon="2.50865">
        <ele>599</ele>
        <time>2013-08-28T18:24:24Z</time>
      </trkpt>
      <trkpt lat="44.34368" lon="2.50871">
        <ele>599</ele>
        <time>2013-08-28T18:24:25Z</time>
      </trkpt>
      <trkpt lat="44.3437" lon="2.50878">
        <ele>600</ele>
        <time>2013-08-28T18:24:26Z</time>
      </trkpt>
      <trkpt lat="44.34373" lon="2.50885">
        <ele>600</ele>
        <time>2013-08-28T18:24:27Z</time>
      </trkpt>
      <trkpt lat="44.34376" lon="2.50891">
        <ele>601</ele>
        <time>2013-08-28T18:24:28Z</time>
      </trkpt>
      <trkpt lat="44.34379" lon="2.50897">
        <ele>601</ele>
        <time>2013-08-28T18:24:29Z</time>
      </trkpt>
      <trkpt lat="44.34381" lon="2.50903">
        <ele>602</ele>
        <time>2013-08-28T18:24:30Z</time>
      </trkpt>
      <trkpt lat="44.34383" lon="2.5091">
        <ele>602</ele>
        <time>2013-08-28T18:24:31Z</time>
      </trkpt>
      <trkpt lat="44.34386" lon="2.50917">
        <ele>603</ele>
        <time>2013-08-28T18:24:32Z</time>
      </trkpt>
      <trkpt lat="44.34388" lon="2.50924">
        <ele>604</ele>
        <time>2013-08-28T18:24:33Z</time>
      </trkpt>
      <trkpt lat="44.3439" lon="2.50931">
        <ele>604</ele>
        <time>2013-08-28T18:24:34Z</time>
      </trkpt>
      <trkpt lat="44.34391" lon="2.50937">
        <ele>604</ele>
        <time>2013-08-28T18:24:35Z</time>
      </trkpt>
      <trkpt lat="44.34393" lon="2.50943">
        <ele>605</ele>
        <time>2013-08-28T18:24:36Z</time>
      </trkpt>
      <trkpt lat="44.34396" lon="2.5095">
        <ele>605</ele>
        <time>2013-08-28T18:24:37Z</time>
      </trkpt>
      <trkpt lat="44.34399" lon="2.50958">
        <ele>606</ele>
        <time>2013-08-28T18:24:38Z</time>
      </trkpt>
      <trkpt lat="44.34402" lon="2.50964">
        <ele>606</ele>
        <time>2013-08-28T18:24:39Z</time>
      </trkpt>
      <trkpt lat="44.34406" lon="2.50971">
        <ele>606</ele>
        <time>2013-08-28T18:24:40Z</time>
      </trkpt>
      <trkpt lat="44.34409" lon="2.50977">
        <ele>606</ele>
        <time>2013-08-28T18:24:41Z</time>
      </trkpt>
      <trkpt lat="44.34413" lon="2.50984">
        <ele>606</ele>
        <time>2013-08-28T18:24:42Z</time>
      </trkpt>
      <trkpt lat="44.34417" lon="2.50991">
        <ele>607</ele>
        <time>2013-08-28T18:24:43Z</time>
      </trkpt>
      <trkpt lat="44.3442" lon="2.50997">
        <ele>607</ele>
        <time>2013-08-28T18:24:44Z</time>
      </trkpt>
      <trkpt lat="44.34422" lon="2.51004">
        <ele>607</ele>
        <time>2013-08-28T18:24:45Z</time>
      </trkpt>
      <trkpt lat="44.34425" lon="2.51011">
        <ele>608</ele>
        <time>2013-08-28T18:24:46Z</time>
      </trkpt>
      <trkpt lat="44.34428" lon="2.51018">
        <ele>608</ele>
        <time>2013-08-28T18:24:47Z</time>
      </trkpt>
      <trkpt lat="44.3443" lon="2.51025">
        <ele>609</ele>
        <time>2013-08-28T18:24:48Z</time>
      </trkpt>
      <trkpt lat="44.34433" lon="2.51033">
        <ele>609</ele>
        <time>2013-08-28T18:24:49Z</time>
      </trkpt>
      <trkpt lat="44.34434" lon="2.51041">
        <ele>609</ele>
        <time>2013-08-28T18:24:50Z</time>
      </trkpt>
      <trkpt lat="44.34436" lon="2.51048">
        <ele>609</ele>
        <time>2013-08-28T18:24:51Z</time>
      </trkpt>
      <trkpt lat="44.34438" lon="2.51056">
        <ele>609</ele>
        <time>2013-08-28T18:24:52Z</time>
      </trkpt>
      <trkpt lat="44.3444" lon="2.51064">
        <ele>609</ele>
        <time>2013-08-28T18:24:53Z</time>
      </trkpt>
      <trkpt lat="44.34442" lon="2.51073">
        <ele>609</ele>
        <time>2013-08-28T18:24:54Z</time>
      </trkpt>
      <trkpt lat="44.34445" lon="2.51081">
        <ele>609</ele>
        <time>2013-08-28T18:24:55Z</time>
      </trkpt>
      <trkpt lat="44.34446" lon="2.51089">
        <ele>609</ele>
        <time>2013-08-28T18:24:56Z</time>
      </trkpt>
      <trkpt lat="44.34448" lon="2.51097">
        <ele>609</ele>
        <time>2013-08-28T18:24:57Z</time>
      </trkpt>
      <trkpt lat="44.34449" lon="2.51105">
        <ele>610</ele>
        <time>2013-08-28T18:24:58Z</time>
      </trkpt>
      <trkpt lat="44.34451" lon="2.51115">
        <ele>610</ele>
        <time>2013-08-28T18:24:59Z</time>
      </trkpt>
      <trkpt lat="44.34451" lon="2.51124">
        <ele>610</ele>
        <time>2013-08-28T18:25:00Z</time>
      </trkpt>
      <trkpt lat="44.34452" lon="2.51132">
        <ele>610</ele>
        <time>2013-08-28T18:25:01Z</time>
      </trkpt>
      <trkpt lat="44.34452" lon="2.51139">
        <ele>611</ele>
        <time>2013-08-28T18:25:02Z</time>
      </trkpt>
      <trkpt lat="44.34452" lon="2.51145">
        <ele>611</ele>
        <time>2013-08-28T18:25:03Z</time>
      </trkpt>
      <trkpt lat="44.34453" lon="2.51152">
        <ele>611</ele>
        <time>2013-08-28T18:25:04Z</time>
      </trkpt>
      <trkpt lat="44.34453" lon="2.5116">
        <ele>611</ele>
        <time>2013-08-28T18:25:05Z</time>
      </trkpt>
      <trkpt lat="44.34454" lon="2.51168">
        <ele>612</ele>
        <time>2013-08-28T18:25:06Z</time>
      </trkpt>
      <trkpt lat="44.34455" lon="2.51176">
        <ele>612</ele>
        <time>2013-08-28T18:25:07Z</time>
      </trkpt>
      <trkpt lat="44.34456" lon="2.51184">
        <ele>612</ele>
        <time>2013-08-28T18:25:08Z</time>
      </trkpt>
      <trkpt lat="44.34457" lon="2.51193">
        <ele>612</ele>
        <time>2013-08-28T18:25:09Z</time>
      </trkpt>
      <trkpt lat="44.34458" lon="2.51201">
        <ele>612</ele>
        <time>2013-08-28T18:25:10Z</time>
      </trkpt>
      <trkpt lat="44.34459" lon="2.51209">
        <ele>613</ele>
        <time>2013-08-28T18:25:11Z</time>
      </trkpt>
      <trkpt lat="44.3446" lon="2.51218">
        <ele>613</ele>
        <time>2013-08-28T18:25:12Z</time>
      </trkpt>
      <trkpt lat="44.34461" lon="2.51227">
        <ele>613</ele>
        <time>2013-08-28T18:25:13Z</time>
      </trkpt>
      <trkpt lat="44.34462" lon="2.51236">
        <ele>613</ele>
        <time>2013-08-28T18:25:14Z</time>
      </trkpt>
      <trkpt lat="44.34464" lon="2.51245">
        <ele>613</ele>
        <time>2013-08-28T18:25:15Z</time>
      </trkpt>
      <trkpt lat="44.34466" lon="2.51254">
        <ele>612</ele>
        <time>2013-08-28T18:25:16Z</time>
      </trkpt>
      <trkpt lat="44.34468" lon="2.51263">
        <ele>612</ele>
        <time>2013-08-28T18:25:17Z</time>
      </trkpt>
      <trkpt lat="44.3447" lon="2.51272">
        <ele>612</ele>
        <time>2013-08-28T18:25:18Z</time>
      </trkpt>
      <trkpt lat="44.34472" lon="2.51281">
        <ele>612</ele>
        <time>2013-08-28T18:25:19Z</time>
      </trkpt>
      <trkpt lat="44.34474" lon="2.51288">
        <ele>612</ele>
        <time>2013-08-28T18:25:20Z</time>
      </trkpt>
      <trkpt lat="44.34476" lon="2.51297">
        <ele>612</ele>
        <time>2013-08-28T18:25:21Z</time>
      </trkpt>
      <trkpt lat="44.34478" lon="2.51305">
        <ele>612</ele>
        <time>2013-08-28T18:25:22Z</time>
      </trkpt>
      <trkpt lat="44.34481" lon="2.51313">
        <ele>612</ele>
        <time>2013-08-28T18:25:23Z</time>
      </trkpt>
      <trkpt lat="44.34483" lon="2.51321">
        <ele>612</ele>
        <time>2013-08-28T18:25:24Z</time>
      </trkpt>
      <trkpt lat="44.34485" lon="2.51328">
        <ele>612</ele>
        <time>2013-08-28T18:25:25Z</time>
      </trkpt>
      <trkpt lat="44.34487" lon="2.51336">
        <ele>612</ele>
        <time>2013-08-28T18:25:26Z</time>
      </trkpt>
      <trkpt lat="44.34489" lon="2.51344">
        <ele>612</ele>
        <time>2013-08-28T18:25:27Z</time>
      </trkpt>
      <trkpt lat="44.34492" lon="2.51352">
        <ele>612</ele>
        <time>2013-08-28T18:25:28Z</time>
      </trkpt>
      <trkpt lat="44.34495" lon="2.5136">
        <ele>612</ele>
        <time>2013-08-28T18:25:29Z</time>
      </trkpt>
      <trkpt lat="44.34497" lon="2.51368">
        <ele>612</ele>
        <time>2013-08-28T18:25:30Z</time>
      </trkpt>
      <trkpt lat="44.34499" lon="2.51375">
        <ele>612</ele>
        <time>2013-08-28T18:25:31Z</time>
      </trkpt>
      <trkpt lat="44.34501" lon="2.51382">
        <ele>612</ele>
        <time>2013-08-28T18:25:32Z</time>
      </trkpt>
      <trkpt lat="44.34503" lon="2.51388">
        <ele>612</ele>
        <time>2013-08-28T18:25:33Z</time>
      </trkpt>
      <trkpt lat="44.34505" lon="2.51395">
        <ele>612</ele>
        <time>2013-08-28T18:25:34Z</time>
      </trkpt>
      <trkpt lat="44.34506" lon="2.51404">
        <ele>612</ele>
        <time>2013-08-28T18:25:35Z</time>
      </trkpt>
      <trkpt lat="44.34508" lon="2.51414">
        <ele>612</ele>
        <time>2013-08-28T18:25:36Z</time>
      </trkpt>
      <trkpt lat="44.34509" lon="2.51422">
        <ele>612</ele>
        <time>2013-08-28T18:25:37Z</time>
      </trkpt>
      <trkpt lat="44.34511" lon="2.5143">
        <ele>612</ele>
        <time>2013-08-28T18:25:38Z</time>
      </trkpt>
      <trkpt lat="44.34513" lon="2.51437">
        <ele>612</ele>
        <time>2013-08-28T18:25:39Z</time>
      </trkpt>
      <trkpt lat="44.34515" lon="2.51445">
        <ele>612</ele>
        <time>2013-08-28T18:25:40Z</time>
      </trkpt>
      <trkpt lat="44.34516" lon="2.51452">
        <ele>612</ele>
        <time>2013-08-28T18:25:41Z</time>
      </trkpt>
      <trkpt lat="44.34518" lon="2.51459">
        <ele>611</ele>
        <time>2013-08-28T18:25:42Z</time>
      </trkpt>
      <trkpt lat="44.3452" lon="2.51467">
        <ele>611</ele>
        <time>2013-08-28T18:25:43Z</time>
      </trkpt>
      <trkpt lat="44.34521" lon="2.51476">
        <ele>611</ele>
        <time>2013-08-28T18:25:44Z</time>
      </trkpt>
      <trkpt lat="44.34522" lon="2.51485">
        <ele>611</ele>
        <time>2013-08-28T18:25:45Z</time>
      </trkpt>
      <trkpt lat="44.34524" lon="2.51493">
        <ele>611</ele>
        <time>2013-08-28T18:25:46Z</time>
      </trkpt>
      <trkpt lat="44.34525" lon="2.51501">
        <ele>611</ele>
        <time>2013-08-28T18:25:47Z</time>
      </trkpt>
      <trkpt lat="44.34526" lon="2.51509">
        <ele>611</ele>
        <time>2013-08-28T18:25:48Z</time>
      </trkpt>
      <trkpt lat="44.34527" lon="2.51518">
        <ele>611</ele>
        <time>2013-08-28T18:25:49Z</time>
      </trkpt>
      <trkpt lat="44.34528" lon="2.51526">
        <ele>611</ele>
        <time>2013-08-28T18:25:50Z</time>
      </trkpt>
      <trkpt lat="44.34528" lon="2.51534">
        <ele>611</ele>
        <time>2013-08-28T18:25:51Z</time>
      </trkpt>
      <trkpt lat="44.34529" lon="2.51546">
        <ele>612</ele>
        <time>2013-08-28T18:25:53Z</time>
      </trkpt>
      <trkpt lat="44.34531" lon="2.51557">
        <ele>612</ele>
        <time>2013-08-28T18:25:55Z</time>
      </trkpt>
      <trkpt lat="44.34531" lon="2.51562">
        <ele>612</ele>
        <time>2013-08-28T18:25:56Z</time>
      </trkpt>
      <trkpt lat="44.34532" lon="2.5157">
        <ele>612</ele>
        <time>2013-08-28T18:25:58Z</time>
      </trkpt>
      <trkpt lat="44.34534" lon="2.51578">
        <ele>612</ele>
        <time>2013-08-28T18:26:01Z</time>
      </trkpt>
      <trkpt lat="44.34537" lon="2.51584">
        <ele>612</ele>
        <time>2013-08-28T18:26:04Z</time>
      </trkpt>
      <trkpt lat="44.34539" lon="2.51593">
        <ele>611</ele>
        <time>2013-08-28T18:26:08Z</time>
      </trkpt>
      <trkpt lat="44.3454" lon="2.516">
        <ele>610</ele>
        <time>2013-08-28T18:26:12Z</time>
      </trkpt>
      <trkpt lat="44.34543" lon="2.51608">
        <ele>609</ele>
        <time>2013-08-28T18:26:15Z</time>
      </trkpt>
      <trkpt lat="44.34546" lon="2.51616">
        <ele>609</ele>
        <time>2013-08-28T18:26:18Z</time>
      </trkpt>
      <trkpt lat="44.34547" lon="2.51622">
        <ele>609</ele>
        <time>2013-08-28T18:26:21Z</time>
      </trkpt>
      <trkpt lat="44.34548" lon="2.51628">
        <ele>609</ele>
        <time>2013-08-28T18:26:24Z</time>
      </trkpt>
      <trkpt lat="44.3455" lon="2.51635">
        <ele>608</ele>
        <time>2013-08-28T18:26:28Z</time>
      </trkpt>
      <trkpt lat="44.34552" lon="2.51643">
        <ele>608</ele>
        <time>2013-08-28T18:26:33Z</time>
      </trkpt>
      <trkpt lat="44.34553" lon="2.5165">
        <ele>608</ele>
        <time>2013-08-28T18:26:36Z</time>
      </trkpt>
      <trkpt lat="44.34554" lon="2.51656">
        <ele>608</ele>
        <time>2013-08-28T18:26:39Z</time>
      </trkpt>
      <trkpt lat="44.34557" lon="2.51662">
        <ele>608</ele>
        <time>2013-08-28T18:26:43Z</time>
      </trkpt>
      <trkpt lat="44.34561" lon="2.51666">
        <ele>608</ele>
        <time>2013-08-28T18:26:47Z</time>
      </trkpt>
      <trkpt lat="44.34565" lon="2.51671">
        <ele>608</ele>
        <time>2013-08-28T18:26:51Z</time>
      </trkpt>
      <trkpt lat="44.34568" lon="2.51676">
        <ele>608</ele>
        <time>2013-08-28T18:26:54Z</time>
      </trkpt>
      <trkpt lat="44.34572" lon="2.51683">
        <ele>607</ele>
        <time>2013-08-28T18:26:58Z</time>
      </trkpt>
      <trkpt lat="44.34575" lon="2.51689">
        <ele>608</ele>
        <time>2013-08-28T18:27:01Z</time>
      </trkpt>
      <trkpt lat="44.34577" lon="2.51695">
        <ele>609</ele>
        <time>2013-08-28T18:27:05Z</time>
      </trkpt>
      <trkpt lat="44.34581" lon="2.51701">
        <ele>607</ele>
        <time>2013-08-28T18:27:09Z</time>
      </trkpt>
      <trkpt lat="44.34584" lon="2.51707">
        <ele>607</ele>
        <time>2013-08-28T18:27:12Z</time>
      </trkpt>
      <trkpt lat="44.34587" lon="2.51712">
        <ele>607</ele>
        <time>2013-08-28T18:27:15Z</time>
      </trkpt>
      <trkpt lat="44.3459" lon="2.51717">
        <ele>607</ele>
        <time>2013-08-28T18:27:18Z</time>
      </trkpt>
      <trkpt lat="44.34594" lon="2.51723">
        <ele>606</ele>
        <time>2013-08-28T18:27:22Z</time>
      </trkpt>
      <trkpt lat="44.346" lon="2.51734">
        <ele>607</ele>
        <time>2013-08-28T18:27:29Z</time>
      </trkpt>
      <trkpt lat="44.34602" lon="2.51739">
        <ele>606</ele>
        <time>2013-08-28T18:27:32Z</time>
      </trkpt>
      <trkpt lat="44.34604" lon="2.51747">
        <ele>607</ele>
        <time>2013-08-28T18:27:36Z</time>
      </trkpt>
      <trkpt lat="44.34607" lon="2.51754">
        <ele>606</ele>
        <time>2013-08-28T18:27:39Z</time>
      </trkpt>
      <trkpt lat="44.34609" lon="2.51759">
        <ele>606</ele>
        <time>2013-08-28T18:27:42Z</time>
      </trkpt>
      <trkpt lat="44.34612" lon="2.51765">
        <ele>606</ele>
        <time>2013-08-28T18:27:46Z</time>
      </trkpt>
      <trkpt lat="44.34615" lon="2.51772">
        <ele>606</ele>
        <time>2013-08-28T18:27:50Z</time>
      </trkpt>
      <trkpt lat="44.34617" lon="2.51778">
        <ele>605</ele>
        <time>2013-08-28T18:27:53Z</time>
      </trkpt>
      <trkpt lat="44.3462" lon="2.51784">
        <ele>605</ele>
        <time>2013-08-28T18:27:57Z</time>
      </trkpt>
      <trkpt lat="44.34622" lon="2.5179">
        <ele>605</ele>
        <time>2013-08-28T18:28:00Z</time>
      </trkpt>
      <trkpt lat="44.34624" lon="2.51796">
        <ele>605</ele>
        <time>2013-08-28T18:28:03Z</time>
      </trkpt>
      <trkpt lat="44.34627" lon="2.51803">
        <ele>604</ele>
        <time>2013-08-28T18:28:07Z</time>
      </trkpt>
      <trkpt lat="44.3463" lon="2.51809">
        <ele>604</ele>
        <time>2013-08-28T18:28:10Z</time>
      </trkpt>
      <trkpt lat="44.34633" lon="2.51816">
        <ele>604</ele>
        <time>2013-08-28T18:28:14Z</time>
      </trkpt>
      <trkpt lat="44.34636" lon="2.51822">
        <ele>604</ele>
        <time>2013-08-28T18:28:18Z</time>
      </trkpt>
      <trkpt lat="44.34638" lon="2.51829">
        <ele>604</ele>
        <time>2013-08-28T18:28:22Z</time>
      </trkpt>
      <trkpt lat="44.34641" lon="2.51835">
        <ele>604</ele>
        <time>2013-08-28T18:28:26Z</time>
      </trkpt>
      <trkpt lat="44.34645" lon="2.51846">
        <ele>604</ele>
        <time>2013-08-28T18:28:32Z</time>
      </trkpt>
      <trkpt lat="44.34648" lon="2.51851">
        <ele>603</ele>
        <time>2013-08-28T18:28:35Z</time>
      </trkpt>
      <trkpt lat="44.34651" lon="2.51856">
        <ele>603</ele>
        <time>2013-08-28T18:28:38Z</time>
      </trkpt>
      <trkpt lat="44.34656" lon="2.5186">
        <ele>603</ele>
        <time>2013-08-28T18:28:42Z</time>
      </trkpt>
      <trkpt lat="44.34661" lon="2.51859">
        <ele>602</ele>
        <time>2013-08-28T18:28:46Z</time>
      </trkpt>
      <trkpt lat="44.34666" lon="2.51857">
        <ele>602</ele>
        <time>2013-08-28T18:28:49Z</time>
      </trkpt>
      <trkpt lat="44.34671" lon="2.51853">
        <ele>603</ele>
        <time>2013-08-28T18:28:53Z</time>
      </trkpt>
      <trkpt lat="44.34675" lon="2.51851">
        <ele>603</ele>
        <time>2013-08-28T18:28:56Z</time>
      </trkpt>
      <trkpt lat="44.3468" lon="2.5185">
        <ele>603</ele>
        <time>2013-08-28T18:29:00Z</time>
      </trkpt>
      <trkpt lat="44.34685" lon="2.51851">
        <ele>603</ele>
        <time>2013-08-28T18:29:03Z</time>
      </trkpt>
      <trkpt lat="44.3469" lon="2.51852">
        <ele>602</ele>
        <time>2013-08-28T18:29:06Z</time>
      </trkpt>
      <trkpt lat="44.34695" lon="2.51853">
        <ele>602</ele>
        <time>2013-08-28T18:29:10Z</time>
      </trkpt>
      <trkpt lat="44.34701" lon="2.51853">
        <ele>601</ele>
        <time>2013-08-28T18:29:13Z</time>
      </trkpt>
      <trkpt lat="44.34707" lon="2.51852">
        <ele>602</ele>
        <time>2013-08-28T18:29:17Z</time>
      </trkpt>
      <trkpt lat="44.34713" lon="2.51849">
        <ele>603</ele>
        <time>2013-08-28T18:29:22Z</time>
      </trkpt>
      <trkpt lat="44.34718" lon="2.51847">
        <ele>603</ele>
        <time>2013-08-28T18:29:25Z</time>
      </trkpt>
      <trkpt lat="44.34722" lon="2.51842">
        <ele>602</ele>
        <time>2013-08-28T18:29:28Z</time>
      </trkpt>
      <trkpt lat="44.34727" lon="2.51838">
        <ele>601</ele>
        <time>2013-08-28T18:29:32Z</time>
      </trkpt>
      <trkpt lat="44.3473" lon="2.51833">
        <ele>601</ele>
        <time>2013-08-28T18:29:36Z</time>
      </trkpt>
      <trkpt lat="44.34734" lon="2.51827">
        <ele>601</ele>
        <time>2013-08-28T18:29:40Z</time>
      </trkpt>
      <trkpt lat="44.34738" lon="2.51822">
        <ele>602</ele>
        <time>2013-08-28T18:29:44Z</time>
      </trkpt>
      <trkpt lat="44.34741" lon="2.51817">
        <ele>602</ele>
        <time>2013-08-28T18:29:48Z</time>
      </trkpt>
      <trkpt lat="44.34745" lon="2.51811">
        <ele>602</ele>
        <time>2013-08-28T18:29:52Z</time>
      </trkpt>
      <trkpt lat="44.34749" lon="2.51806">
        <ele>601</ele>
        <time>2013-08-28T18:29:56Z</time>
      </trkpt>
      <trkpt lat="44.34752" lon="2.51801">
        <ele>602</ele>
        <time>2013-08-28T18:30:01Z</time>
      </trkpt>
      <trkpt lat="44.34756" lon="2.51797">
        <ele>602</ele>
        <time>2013-08-28T18:30:04Z</time>
      </trkpt>
      <trkpt lat="44.3476" lon="2.51795">
        <ele>602</ele>
        <time>2013-08-28T18:30:07Z</time>
      </trkpt>
      <trkpt lat="44.34765" lon="2.51794">
        <ele>602</ele>
        <time>2013-08-28T18:30:11Z</time>
      </trkpt>
      <trkpt lat="44.3477" lon="2.51794">
        <ele>603</ele>
        <time>2013-08-28T18:30:13Z</time>
      </trkpt>
      <trkpt lat="44.3478" lon="2.51794">
        <ele>603</ele>
        <time>2013-08-28T18:30:20Z</time>
      </trkpt>
      <trkpt lat="44.34787" lon="2.51795">
        <ele>603</ele>
        <time>2013-08-28T18:30:25Z</time>
      </trkpt>
      <trkpt lat="44.34794" lon="2.51796">
        <ele>603</ele>
        <time>2013-08-28T18:30:28Z</time>
      </trkpt>
      <trkpt lat="44.348" lon="2.51797">
        <ele>604</ele>
        <time>2013-08-28T18:30:31Z</time>
      </trkpt>
      <trkpt lat="44.34803" lon="2.51798">
        <ele>604</ele>
        <time>2013-08-28T18:30:33Z</time>
      </trkpt>
      <trkpt lat="44.34809" lon="2.51797">
        <ele>604</ele>
        <time>2013-08-28T18:30:37Z</time>
      </trkpt>
      <trkpt lat="44.34815" lon="2.51797">
        <ele>603</ele>
        <time>2013-08-28T18:30:41Z</time>
      </trkpt>
      <trkpt lat="44.3482" lon="2.51798">
        <ele>602</ele>
        <time>2013-08-28T18:30:44Z</time>
      </trkpt>
      <trkpt lat="44.34825" lon="2.51798">
        <ele>602</ele>
        <time>2013-08-28T18:30:47Z</time>
      </trkpt>
      <trkpt lat="44.34831" lon="2.51799">
        <ele>601</ele>
        <time>2013-08-28T18:30:51Z</time>
      </trkpt>
      <trkpt lat="44.34836" lon="2.518">
        <ele>600</ele>
        <time>2013-08-28T18:30:55Z</time>
      </trkpt>
      <trkpt lat="44.34841" lon="2.518">
        <ele>600</ele>
        <time>2013-08-28T18:30:59Z</time>
      </trkpt>
      <trkpt lat="44.34846" lon="2.51801">
        <ele>600</ele>
        <time>2013-08-28T18:31:02Z</time>
      </trkpt>
      <trkpt lat="44.34851" lon="2.51802">
        <ele>600</ele>
        <time>2013-08-28T18:31:05Z</time>
      </trkpt>
      <trkpt lat="44.34856" lon="2.51802">
        <ele>600</ele>
        <time>2013-08-28T18:31:09Z</time>
      </trkpt>
      <trkpt lat="44.34862" lon="2.51803">
        <ele>600</ele>
        <time>2013-08-28T18:31:13Z</time>
      </trkpt>
      <trkpt lat="44.34868" lon="2.51803">
        <ele>601</ele>
        <time>2013-08-28T18:31:17Z</time>
      </trkpt>
      <trkpt lat="44.34875" lon="2.51806">
        <ele>601</ele>
        <time>2013-08-28T18:31:23Z</time>
      </trkpt>
      <trkpt lat="44.34879" lon="2.51809">
        <ele>601</ele>
        <time>2013-08-28T18:31:27Z</time>
      </trkpt>
      <trkpt lat="44.34885" lon="2.51812">
        <ele>600</ele>
        <time>2013-08-28T18:31:31Z</time>
      </trkpt>
      <trkpt lat="44.34889" lon="2.51812">
        <ele>600</ele>
        <time>2013-08-28T18:31:34Z</time>
      </trkpt>
      <trkpt lat="44.34894" lon="2.51812">
        <ele>599</ele>
        <time>2013-08-28T18:31:37Z</time>
      </trkpt>
      <trkpt lat="44.34899" lon="2.5181">
        <ele>598</ele>
        <time>2013-08-28T18:31:41Z</time>
      </trkpt>
      <trkpt lat="44.34904" lon="2.51809">
        <ele>597</ele>
        <time>2013-08-28T18:31:44Z</time>
      </trkpt>
      <trkpt lat="44.34909" lon="2.51807">
        <ele>596</ele>
        <time>2013-08-28T18:31:47Z</time>
      </trkpt>
      <trkpt lat="44.34915" lon="2.51805">
        <ele>594</ele>
        <time>2013-08-28T18:31:51Z</time>
      </trkpt>
      <trkpt lat="44.34919" lon="2.51804">
        <ele>594</ele>
        <time>2013-08-28T18:31:54Z</time>
      </trkpt>
      <trkpt lat="44.34924" lon="2.51802">
        <ele>594</ele>
        <time>2013-08-28T18:31:57Z</time>
      </trkpt>
      <trkpt lat="44.34928" lon="2.51799">
        <ele>594</ele>
        <time>2013-08-28T18:32:00Z</time>
      </trkpt>
      <trkpt lat="44.34931" lon="2.51795">
        <ele>593</ele>
        <time>2013-08-28T18:32:03Z</time>
      </trkpt>
      <trkpt lat="44.34935" lon="2.51792">
        <ele>592</ele>
        <time>2013-08-28T18:32:06Z</time>
      </trkpt>
      <trkpt lat="44.34941" lon="2.51785">
        <ele>590</ele>
        <time>2013-08-28T18:32:11Z</time>
      </trkpt>
      <trkpt lat="44.34946" lon="2.51781">
        <ele>589</ele>
        <time>2013-08-28T18:32:15Z</time>
      </trkpt>
      <trkpt lat="44.3495" lon="2.51776">
        <ele>588</ele>
        <time>2013-08-28T18:32:19Z</time>
      </trkpt>
      <trkpt lat="44.34958" lon="2.51775">
        <ele>588</ele>
        <time>2013-08-28T18:32:26Z</time>
      </trkpt>
      <trkpt lat="44.34968" lon="2.51782">
        <ele>588</ele>
        <time>2013-08-28T18:32:31Z</time>
      </trkpt>
      <trkpt lat="44.34973" lon="2.51788">
        <ele>590</ele>
        <time>2013-08-28T18:32:36Z</time>
      </trkpt>
      <trkpt lat="44.34977" lon="2.51793">
        <ele>590</ele>
        <time>2013-08-28T18:32:39Z</time>
      </trkpt>
      <trkpt lat="44.3498" lon="2.51798">
        <ele>590</ele>
        <time>2013-08-28T18:32:43Z</time>
      </trkpt>
      <trkpt lat="44.34983" lon="2.51804">
        <ele>590</ele>
        <time>2013-08-28T18:32:47Z</time>
      </trkpt>
      <trkpt lat="44.34987" lon="2.51811">
        <ele>590</ele>
        <time>2013-08-28T18:32:51Z</time>
      </trkpt>
      <trkpt lat="44.34991" lon="2.51817">
        <ele>591</ele>
        <time>2013-08-28T18:32:55Z</time>
      </trkpt>
      <trkpt lat="44.34994" lon="2.51823">
        <ele>591</ele>
        <time>2013-08-28T18:32:59Z</time>
      </trkpt>
      <trkpt lat="44.34998" lon="2.51828">
        <ele>590</ele>
        <time>2013-08-28T18:33:03Z</time>
      </trkpt>
      <trkpt lat="44.35003" lon="2.51832">
        <ele>589</ele>
        <time>2013-08-28T18:33:08Z</time>
      </trkpt>
      <trkpt lat="44.35009" lon="2.51836">
        <ele>588</ele>
        <time>2013-08-28T18:33:13Z</time>
      </trkpt>
      <trkpt lat="44.35014" lon="2.51833">
        <ele>587</ele>
        <time>2013-08-28T18:33:17Z</time>
      </trkpt>
      <trkpt lat="44.35019" lon="2.51827">
        <ele>587</ele>
        <time>2013-08-28T18:33:21Z</time>
      </trkpt>
      <trkpt lat="44.35024" lon="2.51822">
        <ele>587</ele>
        <time>2013-08-28T18:33:24Z</time>
      </trkpt>
      <trkpt lat="44.35029" lon="2.51819">
        <ele>588</ele>
        <time>2013-08-28T18:33:27Z</time>
      </trkpt>
      <trkpt lat="44.35034" lon="2.51814">
        <ele>588</ele>
        <time>2013-08-28T18:33:31Z</time>
      </trkpt>
      <trkpt lat="44.35038" lon="2.51811">
        <ele>588</ele>
        <time>2013-08-28T18:33:34Z</time>
      </trkpt>
      <trkpt lat="44.35043" lon="2.51807">
        <ele>589</ele>
        <time>2013-08-28T18:33:37Z</time>
      </trkpt>
      <trkpt lat="44.35049" lon="2.51802">
        <ele>589</ele>
        <time>2013-08-28T18:33:42Z</time>
      </trkpt>
      <trkpt lat="44.35055" lon="2.51798">
        <ele>588</ele>
        <time>2013-08-28T18:33:45Z</time>
      </trkpt>
      <trkpt lat="44.35059" lon="2.51795">
        <ele>589</ele>
        <time>2013-08-28T18:33:48Z</time>
      </trkpt>
      <trkpt lat="44.35064" lon="2.51791">
        <ele>589</ele>
        <time>2013-08-28T18:33:52Z</time>
      </trkpt>
      <trkpt lat="44.3507" lon="2.51785">
        <ele>590</ele>
        <time>2013-08-28T18:33:57Z</time>
      </trkpt>
      <trkpt lat="44.35074" lon="2.51781">
        <ele>590</ele>
        <time>2013-08-28T18:34:00Z</time>
      </trkpt>
      <trkpt lat="44.35078" lon="2.51778">
        <ele>590</ele>
        <time>2013-08-28T18:34:03Z</time>
      </trkpt>
      <trkpt lat="44.35082" lon="2.51774">
        <ele>590</ele>
        <time>2013-08-28T18:34:06Z</time>
      </trkpt>
      <trkpt lat="44.35086" lon="2.5177">
        <ele>590</ele>
        <time>2013-08-28T18:34:09Z</time>
      </trkpt>
      <trkpt lat="44.3509" lon="2.51766">
        <ele>590</ele>
        <time>2013-08-28T18:34:13Z</time>
      </trkpt>
      <trkpt lat="44.35095" lon="2.51762">
        <ele>590</ele>
        <time>2013-08-28T18:34:16Z</time>
      </trkpt>
      <trkpt lat="44.35103" lon="2.51757">
        <ele>590</ele>
        <time>2013-08-28T18:34:22Z</time>
      </trkpt>
      <trkpt lat="44.35108" lon="2.51754">
        <ele>589</ele>
        <time>2013-08-28T18:34:25Z</time>
      </trkpt>
      <trkpt lat="44.35114" lon="2.51751">
        <ele>588</ele>
        <time>2013-08-28T18:34:29Z</time>
      </trkpt>
      <trkpt lat="44.35121" lon="2.51749">
        <ele>588</ele>
        <time>2013-08-28T18:34:35Z</time>
      </trkpt>
      <trkpt lat="44.35127" lon="2.51748">
        <ele>587</ele>
        <time>2013-08-28T18:34:39Z</time>
      </trkpt>
      <trkpt lat="44.35132" lon="2.51749">
        <ele>587</ele>
        <time>2013-08-28T18:34:42Z</time>
      </trkpt>
      <trkpt lat="44.35137" lon="2.51748">
        <ele>587</ele>
        <time>2013-08-28T18:34:45Z</time>
      </trkpt>
      <trkpt lat="44.35143" lon="2.51744">
        <ele>585</ele>
        <time>2013-08-28T18:34:49Z</time>
      </trkpt>
      <trkpt lat="44.35147" lon="2.51741">
        <ele>585</ele>
        <time>2013-08-28T18:34:53Z</time>
      </trkpt>
      <trkpt lat="44.35153" lon="2.51735">
        <ele>586</ele>
        <time>2013-08-28T18:34:58Z</time>
      </trkpt>
      <trkpt lat="44.35158" lon="2.51731">
        <ele>586</ele>
        <time>2013-08-28T18:35:01Z</time>
      </trkpt>
      <trkpt lat="44.35162" lon="2.51725">
        <ele>585</ele>
        <time>2013-08-28T18:35:05Z</time>
      </trkpt>
      <trkpt lat="44.35166" lon="2.51719">
        <ele>584</ele>
        <time>2013-08-28T18:35:08Z</time>
      </trkpt>
      <trkpt lat="44.35172" lon="2.5171">
        <ele>582</ele>
        <time>2013-08-28T18:35:14Z</time>
      </trkpt>
      <trkpt lat="44.35177" lon="2.51705">
        <ele>582</ele>
        <time>2013-08-28T18:35:17Z</time>
      </trkpt>
      <trkpt lat="44.3518" lon="2.517">
        <ele>582</ele>
        <time>2013-08-28T18:35:21Z</time>
      </trkpt>
      <trkpt lat="44.35184" lon="2.51693">
        <ele>582</ele>
        <time>2013-08-28T18:35:25Z</time>
      </trkpt>
      <trkpt lat="44.35188" lon="2.51686">
        <ele>581</ele>
        <time>2013-08-28T18:35:30Z</time>
      </trkpt>
      <trkpt lat="44.35192" lon="2.51681">
        <ele>581</ele>
        <time>2013-08-28T18:35:33Z</time>
      </trkpt>
      <trkpt lat="44.35196" lon="2.51676">
        <ele>581</ele>
        <time>2013-08-28T18:35:36Z</time>
      </trkpt>
      <trkpt lat="44.352" lon="2.51668">
        <ele>581</ele>
        <time>2013-08-28T18:35:41Z</time>
      </trkpt>
      <trkpt lat="44.35203" lon="2.51665">
        <ele>581</ele>
        <time>2013-08-28T18:36:03Z</time>
      </trkpt>
      <trkpt lat="44.35204" lon="2.51662">
        <ele>583</ele>
        <time>2013-08-28T18:36:37Z</time>
      </trkpt>
    </trkseg>
  </trk>
</gpx>